Time,TemperatureF,DewpointF,PressureIn,WindDirection,WindDirectionDegrees,WindSpeedMPH,WindSpeedGustMPH,Humidity,HourlyPrecipIn,Conditions,Clouds,dailyrainin,SolarRadiationWatts/m^2,SoftwareType,DateUTC
2013-08-07 00:00:00,79.4,71.6,29.94,NNE,15,0.0,0.0,77,0.00,FEW,,0.00,0.0,WeatherDisplay:10.37,2013-08-06 22:00:00,
2013-08-07 00:01:00,79.4,71.6,29.94,NNE,15,0.0,0.0,77,0.00,FEW,,0.00,0.0,WeatherDisplay:10.37,2013-08-06 22:01:00,
2013-08-07 00:03:00,79.3,71.5,29.93,NNE,15,0.0,0.0,77,0.00,FEW,,0.00,0.0,WeatherDisplay:10.37,2013-08-06 22:03:00,
2013-08-07 00:04:00,79.2,71.4,29.94,NNE,15,0.0,0.1,77,0.00,FEW,,0.00,0.0,WeatherDisplay:10.37,2013-08-06 22:04:00,
2013-08-07 00:06:00,79.2,71.4,29.94,NNE,15,0.0,0.0,77,0.00,FEW,,0.00,0.0,WeatherDisplay:10.37,2013-08-06 22:06:00,
2013-08-07 00:07:00,79.2,71.4,29.94,NNE,15,0.0,0.0,77,0.00,FEW,,0.00,0.0,WeatherDisplay:10.37,2013-08-06 22:07:00,
2013-08-07 00:09:00,79.1,71.3,29.94,NNE,15,0.0,0.0,77,0.00,FEW,,0.00,0.0,WeatherDisplay:10.37,2013-08-06 22:09:00,
2013-08-07 00:11:00,79.1,71.3,29.94,NNE,15,0.0,0.0,77,0.00,FEW,,0.00,0.0,WeatherDisplay:10.37,2013-08-06 22:11:00,
2013-08-07 00:12:00,79.1,71.3,29.94,NNE,15,0.0,0.0,77,0.00,FEW,,0.00,0.0,WeatherDisplay:10.37,2013-08-06 22:12:00,
2013-08-07 00:14:00,79.1,71.6,29.94,NNE,12,0.0,0.0,78,0.00,FEW,,0.00,0.0,WeatherDisplay:10.37,2013-08-06 22:14:00,
2013-08-07 00:17:00,79.2,71.7,29.94,NNW,338,0.0,0.0,78,0.00,FEW,,0.00,0.0,WeatherDisplay:10.37,2013-08-06 22:17:00,
2013-08-07 00:18:00,79.2,71.7,29.94,NNW,338,0.0,0.0,78,0.00,FEW,,0.00,0.0,WeatherDisplay:10.37,2013-08-06 22:18:00,
2013-08-07 00:19:00,79.3,71.8,29.94,NNW,338,0.0,0.0,78,0.00,FEW,,0.00,0.0,WeatherDisplay:10.37,2013-08-06 22:19:00,
2013-08-07 00:22:00,79.3,72.2,29.94,NNW,338,0.0,0.0,79,0.00,FEW,,0.00,0.0,WeatherDisplay:10.37,2013-08-06 22:22:00,
2013-08-07 00:23:00,79.3,72.2,29.94,NNW,338,0.0,0.0,79,0.00,FEW,,0.00,0.0,WeatherDisplay:10.37,2013-08-06 22:23:00,
2013-08-07 00:24:00,79.3,72.2,29.94,NNW,338,0.0,0.0,79,0.00,FEW,,0.00,0.0,WeatherDisplay:10.37,2013-08-06 22:24:00,
2013-08-07 00:25:00,79.4,72.3,29.94,NNW,338,0.0,0.0,79,0.00,FEW,,0.00,0.0,WeatherDisplay:10.37,2013-08-06 22:25:00,
2013-08-07 00:27:00,79.4,72.3,29.94,NNW,338,0.0,0.0,79,0.00,FEW,,0.00,0.0,WeatherDisplay:10.37,2013-08-06 22:27:00,
2013-08-07 00:28:00,79.3,72.2,29.94,NNW,338,0.0,0.0,79,0.00,FEW,,0.00,0.0,WeatherDisplay:10.37,2013-08-06 22:28:00,
2013-08-07 00:29:00,79.3,72.2,29.94,NNW,338,0.0,0.0,79,0.00,FEW,,0.00,0.0,WeatherDisplay:10.37,2013-08-06 22:29:00,
2013-08-07 00:30:00,79.3,72.2,29.94,NNW,338,0.0,0.0,79,0.00,FEW,,0.00,0.0,WeatherDisplay:10.37,2013-08-06 22:30:00,
2013-08-07 00:31:00,79.3,72.2,29.94,NNW,338,0.0,0.0,79,0.00,FEW,,0.00,0.0,WeatherDisplay:10.37,2013-08-06 22:31:00,
2013-08-07 00:33:00,79.3,72.2,29.94,NNW,338,0.0,0.0,79,0.00,FEW,,0.00,0.0,WeatherDisplay:10.37,2013-08-06 22:33:00,
2013-08-07 00:34:00,79.3,72.2,29.94,NNW,340,1.2,0.0,79,0.00,FEW,,0.00,0.0,WeatherDisplay:10.37,2013-08-06 22:34:00,
2013-08-07 00:35:00,79.3,72.2,29.94,NNW,340,0.0,0.0,79,0.00,FEW,,0.00,0.0,WeatherDisplay:10.37,2013-08-06 22:35:00,
2013-08-07 00:36:00,79.2,72.5,29.94,NNW,340,0.0,0.0,80,0.00,FEW,,0.00,0.0,WeatherDisplay:10.37,2013-08-06 22:36:00,
2013-08-07 00:38:00,79.2,72.1,29.93,NNW,340,0.0,0.0,79,0.00,FEW,,0.00,0.0,WeatherDisplay:10.37,2013-08-06 22:38:00,
2013-08-07 00:39:00,79.2,72.1,29.93,NNW,340,0.0,0.0,79,0.00,FEW,,0.00,0.0,WeatherDisplay:10.37,2013-08-06 22:39:00,
2013-08-07 00:40:00,79.2,72.1,29.93,NNW,340,0.0,0.0,79,0.00,FEW,,0.00,0.0,WeatherDisplay:10.37,2013-08-06 22:40:00,
2013-08-07 00:41:00,79.1,72.0,29.93,NNW,340,0.0,0.0,79,0.00,FEW,,0.00,0.0,WeatherDisplay:10.37,2013-08-06 22:41:00,
2013-08-07 00:44:00,79.0,71.9,29.93,NNW,340,0.0,0.0,79,0.00,FEW,,0.00,0.0,WeatherDisplay:10.37,2013-08-06 22:44:00,
2013-08-07 00:45:00,79.0,71.9,29.93,NNW,340,0.0,0.0,79,0.00,FEW,,0.00,0.0,WeatherDisplay:10.37,2013-08-06 22:45:00,
2013-08-07 00:46:00,79.0,71.9,29.93,NNW,344,0.0,0.0,79,0.00,FEW,,0.00,0.0,WeatherDisplay:10.37,2013-08-06 22:46:00,
2013-08-07 00:47:00,78.9,71.8,29.94,NNW,344,0.0,0.0,79,0.00,FEW,,0.00,0.0,WeatherDisplay:10.37,2013-08-06 22:47:00,
2013-08-07 00:49:00,78.8,72.1,29.93,NNW,344,0.0,0.0,80,0.00,FEW,,0.00,0.0,WeatherDisplay:10.37,2013-08-06 22:49:00,
2013-08-07 00:50:00,78.8,72.1,29.93,NNW,344,0.0,0.0,80,0.00,FEW,,0.00,0.0,WeatherDisplay:10.37,2013-08-06 22:50:00,
2013-08-07 00:51:00,78.8,72.1,29.93,NNW,344,0.0,0.0,80,0.00,FEW,,0.00,0.0,WeatherDisplay:10.37,2013-08-06 22:51:00,
2013-08-07 00:52:00,78.8,72.1,29.93,NNW,344,0.0,0.0,80,0.00,FEW,,0.00,0.0,WeatherDisplay:10.37,2013-08-06 22:52:00,
2013-08-07 00:54:00,78.7,72.0,29.93,NNW,344,0.0,0.0,80,0.00,FEW,,0.00,0.0,WeatherDisplay:10.37,2013-08-06 22:54:00,
2013-08-07 00:55:00,78.7,72.0,29.93,NNW,344,0.0,0.0,80,0.00,FEW,,0.00,0.0,WeatherDisplay:10.37,2013-08-06 22:55:00,
2013-08-07 00:57:00,78.7,72.0,29.93,NNW,344,0.0,0.0,80,0.00,FEW,,0.00,0.0,WeatherDisplay:10.37,2013-08-06 22:57:00,
2013-08-07 00:59:00,78.8,72.5,29.93,NNW,344,0.0,0.0,81,0.00,FEW,,0.00,0.0,WeatherDisplay:10.37,2013-08-06 22:59:00,
2013-08-07 01:00:00,78.9,72.6,29.93,NNW,344,0.0,0.0,81,0.00,FEW,,0.00,0.0,WeatherDisplay:10.37,2013-08-06 23:00:00,
2013-08-07 01:01:00,78.9,72.6,29.93,NNW,344,0.0,0.0,81,0.00,FEW,,0.00,0.0,WeatherDisplay:10.37,2013-08-06 23:01:00,
2013-08-07 01:02:00,78.9,72.6,29.93,NNW,344,0.0,0.0,81,0.00,FEW,,0.00,0.0,WeatherDisplay:10.37,2013-08-06 23:02:00,
2013-08-07 01:05:00,78.9,72.6,29.93,NNW,344,0.0,0.0,81,0.00,FEW,,0.00,0.0,WeatherDisplay:10.37,2013-08-06 23:05:00,
2013-08-07 01:06:00,78.9,72.6,29.93,NNW,344,0.0,0.0,81,0.00,FEW,,0.00,0.0,WeatherDisplay:10.37,2013-08-06 23:06:00,
2013-08-07 01:08:00,78.8,72.5,29.93,NNW,344,0.0,0.0,81,0.00,FEW,,0.00,0.0,WeatherDisplay:10.37,2013-08-06 23:08:00,
2013-08-07 01:11:00,78.6,71.9,29.92,North,5,0.0,0.0,80,0.00,FEW,,0.00,0.0,WeatherDisplay:10.37,2013-08-06 23:11:00,
2013-08-07 01:13:00,78.4,71.3,29.92,North,5,0.0,0.0,79,0.00,FEW,,0.00,0.0,WeatherDisplay:10.37,2013-08-06 23:13:00,
2013-08-07 01:16:00,78.2,71.2,29.92,NNE,19,0.0,0.0,79,0.00,FEW,,0.00,0.0,WeatherDisplay:10.37,2013-08-06 23:16:00,
2013-08-07 01:18:00,78.2,71.2,29.92,NE,36,0.0,0.0,79,0.00,FEW,,0.00,0.0,WeatherDisplay:10.37,2013-08-06 23:18:00,
2013-08-07 01:21:00,78.1,71.1,29.92,NE,36,0.0,0.0,79,0.00,FEW,,0.00,0.0,WeatherDisplay:10.37,2013-08-06 23:21:00,
2013-08-07 01:22:00,78.1,71.1,29.92,NE,36,0.0,0.0,79,0.00,FEW,,0.00,0.0,WeatherDisplay:10.37,2013-08-06 23:22:00,
2013-08-07 01:23:00,78.1,71.1,29.92,NE,36,0.0,0.0,79,0.00,FEW,,0.00,0.0,WeatherDisplay:10.37,2013-08-06 23:23:00,
2013-08-07 01:24:00,78.1,71.1,29.92,NE,36,0.0,0.0,79,0.00,FEW,,0.00,0.0,WeatherDisplay:10.37,2013-08-06 23:24:00,
2013-08-07 01:26:00,78.1,71.1,29.92,NE,36,0.0,0.0,79,0.00,FEW,,0.00,0.0,WeatherDisplay:10.37,2013-08-06 23:26:00,
2013-08-07 01:27:00,78.1,71.1,29.92,NE,36,0.0,0.0,79,0.00,FEW,,0.00,0.0,WeatherDisplay:10.37,2013-08-06 23:27:00,
2013-08-07 01:29:00,78.1,71.1,29.92,NE,36,0.0,0.0,79,0.00,FEW,,0.00,0.0,WeatherDisplay:10.37,2013-08-06 23:29:00,
2013-08-07 01:31:00,78.1,70.7,29.92,NE,36,0.0,0.0,78,0.00,FEW,,0.00,0.0,WeatherDisplay:10.37,2013-08-06 23:31:00,
2013-08-07 01:32:00,78.2,70.8,29.92,NE,36,0.0,0.0,78,0.00,FEW,,0.00,0.0,WeatherDisplay:10.37,2013-08-06 23:32:00,
2013-08-07 01:33:00,78.1,70.7,29.92,NE,36,0.0,0.0,78,0.00,FEW,,0.00,0.0,WeatherDisplay:10.37,2013-08-06 23:33:00,
2013-08-07 01:34:00,78.2,70.8,29.92,NE,36,0.0,0.1,78,0.00,FEW,,0.00,0.0,WeatherDisplay:10.37,2013-08-06 23:34:00,
2013-08-07 01:35:00,78.2,70.8,29.92,ENE,57,0.0,0.1,78,0.00,FEW,,0.00,0.0,WeatherDisplay:10.37,2013-08-06 23:35:00,
2013-08-07 01:36:00,78.2,70.8,29.92,ENE,74,3.0,3.0,78,0.00,FEW,,0.00,0.0,WeatherDisplay:10.37,2013-08-06 23:36:00,
2013-08-07 01:37:00,78.3,70.9,29.92,ENE,59,3.5,3.5,78,0.00,FEW,,0.00,0.0,WeatherDisplay:10.37,2013-08-06 23:37:00,
2013-08-07 01:39:00,78.3,70.9,29.92,ENE,76,3.5,3.5,78,0.00,FEW,,0.00,0.0,WeatherDisplay:10.37,2013-08-06 23:39:00,
2013-08-07 01:40:00,78.4,71.0,29.92,ENE,76,3.5,3.5,78,0.00,FEW,,0.00,0.0,WeatherDisplay:10.37,2013-08-06 23:40:00,
2013-08-07 01:42:00,78.4,71.0,29.92,East,82,0.0,0.0,78,0.00,FEW,,0.00,0.0,WeatherDisplay:10.37,2013-08-06 23:42:00,
2013-08-07 01:45:00,78.4,70.6,29.92,East,81,1.2,0.0,77,0.00,FEW,,0.00,0.0,WeatherDisplay:10.37,2013-08-06 23:45:00,
2013-08-07 01:46:00,78.4,70.6,29.92,East,81,0.0,0.0,77,0.00,FEW,,0.00,0.0,WeatherDisplay:10.37,2013-08-06 23:46:00,
2013-08-07 01:47:00,78.4,70.6,29.92,East,81,0.0,0.0,77,0.00,FEW,,0.00,0.0,WeatherDisplay:10.37,2013-08-06 23:47:00,
2013-08-07 01:48:00,78.4,70.6,29.92,East,81,0.0,0.0,77,0.00,FEW,,0.00,0.0,WeatherDisplay:10.37,2013-08-06 23:48:00,
2013-08-07 01:51:00,78.6,70.8,29.92,East,81,0.0,0.0,77,0.00,FEW,,0.00,0.0,WeatherDisplay:10.37,2013-08-06 23:51:00,
2013-08-07 01:52:00,78.6,70.8,29.92,East,81,0.0,0.0,77,0.00,FEW,,0.00,0.0,WeatherDisplay:10.37,2013-08-06 23:52:00,
2013-08-07 01:53:00,78.6,70.8,29.92,East,81,0.0,0.0,77,0.00,FEW,,0.00,0.0,WeatherDisplay:10.37,2013-08-06 23:53:00,
2013-08-07 01:56:00,78.6,71.2,29.92,East,81,0.0,0.0,78,0.00,FEW,,0.00,0.0,WeatherDisplay:10.37,2013-08-06 23:56:00,
2013-08-07 01:57:00,78.7,71.3,29.92,East,81,0.0,0.0,78,0.00,FEW,,0.00,0.0,WeatherDisplay:10.37,2013-08-06 23:57:00,
2013-08-07 01:58:00,78.7,71.3,29.92,East,81,0.0,0.0,78,0.00,FEW,,0.00,0.0,WeatherDisplay:10.37,2013-08-06 23:58:00,
2013-08-07 02:01:00,78.8,71.4,29.92,East,81,0.0,0.0,78,0.00,FEW,,0.00,0.0,WeatherDisplay:10.37,2013-08-07 00:01:00,
2013-08-07 02:02:00,78.9,71.5,29.92,East,81,0.0,0.0,78,0.00,FEW,,0.00,0.0,WeatherDisplay:10.37,2013-08-07 00:02:00,
2013-08-07 02:03:00,78.9,71.5,29.92,East,81,0.0,0.0,78,0.00,FEW,,0.00,0.0,WeatherDisplay:10.37,2013-08-07 00:03:00,
2013-08-07 02:07:00,78.9,71.5,29.92,East,81,0.0,0.0,78,0.00,FEW,,0.00,0.0,WeatherDisplay:10.37,2013-08-07 00:07:00,
2013-08-07 02:08:00,78.9,71.5,29.92,East,81,0.0,0.0,78,0.00,FEW,,0.00,0.0,WeatherDisplay:10.37,2013-08-07 00:08:00,
2013-08-07 02:09:00,78.9,71.5,29.92,East,81,0.0,0.0,78,0.00,FEW,,0.00,0.0,WeatherDisplay:10.37,2013-08-07 00:09:00,
2013-08-07 02:12:00,78.9,71.5,29.92,NNE,32,0.0,0.0,78,0.00,FEW,,0.00,0.0,WeatherDisplay:10.37,2013-08-07 00:12:00,
2013-08-07 02:13:00,78.8,71.0,29.92,NNE,31,0.0,0.0,77,0.00,FEW,,0.00,0.0,WeatherDisplay:10.37,2013-08-07 00:13:00,
2013-08-07 02:15:00,78.6,70.8,29.92,NNE,31,3.5,3.5,77,0.00,FEW,,0.00,0.0,WeatherDisplay:10.37,2013-08-07 00:15:00,
2013-08-07 02:17:00,78.5,70.3,29.92,NNE,31,2.3,0.0,76,0.00,FEW,,0.00,0.0,WeatherDisplay:10.37,2013-08-07 00:17:00,
2013-08-07 02:18:00,78.4,70.2,29.92,NE,37,0.0,0.0,76,0.00,FEW,,0.00,0.0,WeatherDisplay:10.37,2013-08-07 00:18:00,
2013-08-07 02:20:00,78.2,69.6,29.92,NE,37,0.0,0.0,75,0.00,FEW,,0.00,0.0,WeatherDisplay:10.37,2013-08-07 00:20:00,
2013-08-07 02:22:00,78.1,69.5,29.92,NE,37,0.0,0.0,75,0.00,FEW,,0.00,0.0,WeatherDisplay:10.37,2013-08-07 00:22:00,
2013-08-07 02:23:00,78.1,69.5,29.92,NE,37,0.0,0.0,75,0.00,FEW,,0.00,0.0,WeatherDisplay:10.37,2013-08-07 00:23:00,
2013-08-07 02:24:00,78.1,69.5,29.92,NE,37,0.0,0.0,75,0.00,FEW,,0.00,0.0,WeatherDisplay:10.37,2013-08-07 00:24:00,
2013-08-07 02:26:00,77.9,69.3,29.92,NE,37,0.0,0.0,75,0.00,FEW,,0.00,0.0,WeatherDisplay:10.37,2013-08-07 00:26:00,
2013-08-07 02:28:00,77.9,69.3,29.92,NE,37,0.0,0.0,75,0.00,FEW,,0.00,0.0,WeatherDisplay:10.37,2013-08-07 00:28:00,
2013-08-07 02:29:00,77.8,69.2,29.92,NE,37,1.2,0.0,75,0.00,FEW,,0.00,0.0,WeatherDisplay:10.37,2013-08-07 00:29:00,
2013-08-07 02:30:00,77.8,69.2,29.92,NE,37,1.2,0.0,75,0.00,FEW,,0.00,0.0,WeatherDisplay:10.37,2013-08-07 00:30:00,
2013-08-07 02:31:00,77.8,69.2,29.92,NE,37,0.0,0.0,75,0.00,FEW,,0.00,0.0,WeatherDisplay:10.37,2013-08-07 00:31:00,
2013-08-07 02:33:00,77.8,69.2,29.92,NE,37,0.0,0.0,75,0.00,FEW,,0.00,0.0,WeatherDisplay:10.37,2013-08-07 00:33:00,
2013-08-07 02:35:00,77.8,69.2,29.92,NE,37,0.0,0.0,75,0.00,FEW,,0.00,0.0,WeatherDisplay:10.37,2013-08-07 00:35:00,
2013-08-07 02:37:00,77.8,69.2,29.91,NE,37,0.0,0.0,75,0.00,FEW,,0.00,0.0,WeatherDisplay:10.37,2013-08-07 00:37:00,
2013-08-07 02:38:00,77.8,69.2,29.92,NE,37,0.0,0.0,75,0.00,FEW,,0.00,0.0,WeatherDisplay:10.37,2013-08-07 00:38:00,
2013-08-07 02:40:00,77.7,69.1,29.91,NE,37,0.0,0.0,75,0.00,FEW,,0.00,0.0,WeatherDisplay:10.37,2013-08-07 00:40:00,
2013-08-07 02:42:00,77.7,69.1,29.92,NE,37,0.0,0.0,75,0.00,FEW,,0.00,0.0,WeatherDisplay:10.37,2013-08-07 00:42:00,
2013-08-07 02:43:00,77.7,69.1,29.91,NE,37,0.0,0.0,75,0.00,FEW,,0.00,0.0,WeatherDisplay:10.37,2013-08-07 00:43:00,
2013-08-07 02:44:00,77.7,69.1,29.91,NE,37,0.0,0.0,75,0.00,FEW,,0.00,0.0,WeatherDisplay:10.37,2013-08-07 00:44:00,
2013-08-07 02:45:00,77.7,69.1,29.91,NE,37,0.0,0.0,75,0.00,FEW,,0.00,0.0,WeatherDisplay:10.37,2013-08-07 00:45:00,
2013-08-07 02:46:00,77.7,69.1,29.91,NE,37,0.0,0.0,75,0.00,FEW,,0.00,0.0,WeatherDisplay:10.37,2013-08-07 00:46:00,
2013-08-07 02:48:00,77.7,69.1,29.91,NE,37,0.0,0.0,75,0.00,FEW,,0.00,0.0,WeatherDisplay:10.37,2013-08-07 00:48:00,
2013-08-07 02:49:00,77.7,69.1,29.91,NE,37,0.0,0.0,75,0.00,FEW,,0.00,0.0,WeatherDisplay:10.37,2013-08-07 00:49:00,
2013-08-07 02:50:00,77.7,69.1,29.91,NE,37,0.0,0.0,75,0.00,FEW,,0.00,0.0,WeatherDisplay:10.37,2013-08-07 00:50:00,
2013-08-07 02:51:00,77.7,69.1,29.91,NE,37,0.0,0.0,75,0.00,FEW,,0.00,0.0,WeatherDisplay:10.37,2013-08-07 00:51:00,
2013-08-07 02:53:00,77.7,69.1,29.91,NE,37,0.0,0.0,75,0.00,FEW,,0.00,0.0,WeatherDisplay:10.37,2013-08-07 00:53:00,
2013-08-07 02:54:00,77.7,69.1,29.91,NE,37,0.0,0.0,75,0.00,FEW,,0.00,0.0,WeatherDisplay:10.37,2013-08-07 00:54:00,
2013-08-07 02:55:00,77.7,69.1,29.91,NE,37,0.0,0.0,75,0.00,FEW,,0.00,0.0,WeatherDisplay:10.37,2013-08-07 00:55:00,
2013-08-07 02:56:00,77.7,69.1,29.91,NE,49,0.0,0.0,75,0.00,FEW,,0.00,0.0,WeatherDisplay:10.37,2013-08-07 00:56:00,
2013-08-07 02:58:00,77.8,69.2,29.92,ENE,64,0.0,0.1,75,0.00,FEW,,0.00,0.0,WeatherDisplay:10.37,2013-08-07 00:58:00,
2013-08-07 02:59:00,77.7,69.1,29.92,ENE,64,1.2,1.2,75,0.00,FEW,,0.00,0.0,WeatherDisplay:10.37,2013-08-07 00:59:00,
2013-08-07 03:00:00,77.7,69.1,29.91,ENE,64,3.0,3.0,75,0.00,FEW,,0.00,0.0,WeatherDisplay:10.37,2013-08-07 01:00:00,
2013-08-07 03:01:00,77.8,69.2,29.91,ENE,68,3.5,3.5,75,0.00,FEW,,0.00,0.0,WeatherDisplay:10.37,2013-08-07 01:01:00,
2013-08-07 03:02:00,77.8,69.2,29.92,ENE,68,2.3,0.0,75,0.00,FEW,,0.00,0.0,WeatherDisplay:10.37,2013-08-07 01:02:00,
2013-08-07 03:03:00,77.8,69.2,29.92,ENE,68,0.0,0.0,75,0.00,FEW,,0.00,0.0,WeatherDisplay:10.37,2013-08-07 01:03:00,
2013-08-07 03:04:00,77.8,69.2,29.92,ENE,68,0.0,0.0,75,0.00,FEW,,0.00,0.0,WeatherDisplay:10.37,2013-08-07 01:04:00,
2013-08-07 03:05:00,77.8,69.2,29.92,ENE,68,0.0,0.0,75,0.00,FEW,,0.00,0.0,WeatherDisplay:10.37,2013-08-07 01:05:00,
2013-08-07 03:06:00,77.8,69.2,29.92,ENE,68,0.0,0.0,75,0.00,FEW,,0.00,0.0,WeatherDisplay:10.37,2013-08-07 01:06:00,
2013-08-07 03:07:00,77.8,69.2,29.92,ENE,68,0.0,0.0,75,0.00,FEW,,0.00,0.0,WeatherDisplay:10.37,2013-08-07 01:07:00,
2013-08-07 03:09:00,77.8,69.2,29.92,ENE,68,0.0,0.0,75,0.00,FEW,,0.00,0.0,WeatherDisplay:10.37,2013-08-07 01:09:00,
2013-08-07 03:11:00,77.8,69.2,29.92,ENE,68,0.0,0.0,75,0.00,FEW,,0.00,0.0,WeatherDisplay:10.37,2013-08-07 01:11:00,
2013-08-07 03:12:00,77.8,69.2,29.92,ENE,68,0.0,0.0,75,0.00,FEW,,0.00,0.0,WeatherDisplay:10.37,2013-08-07 01:12:00,
2013-08-07 03:15:00,77.9,69.3,29.92,ENE,68,0.0,0.0,75,0.00,FEW,,0.00,0.0,WeatherDisplay:10.37,2013-08-07 01:15:00,
2013-08-07 03:16:00,77.9,69.3,29.92,ENE,68,0.0,0.0,75,0.00,FEW,,0.00,0.0,WeatherDisplay:10.37,2013-08-07 01:16:00,
2013-08-07 03:17:00,77.9,69.3,29.92,ENE,68,0.0,0.0,75,0.00,FEW,,0.00,0.0,WeatherDisplay:10.37,2013-08-07 01:17:00,
2013-08-07 03:18:00,78.0,69.4,29.92,ENE,68,0.0,0.0,75,0.00,FEW,,0.00,0.0,WeatherDisplay:10.37,2013-08-07 01:18:00,
2013-08-07 03:20:00,78.0,69.4,29.92,ENE,68,0.0,0.0,75,0.00,FEW,,0.00,0.0,WeatherDisplay:10.37,2013-08-07 01:20:00,
2013-08-07 03:22:00,78.0,69.4,29.92,ENE,68,0.0,0.0,75,0.00,FEW,,0.00,0.0,WeatherDisplay:10.37,2013-08-07 01:22:00,
2013-08-07 03:23:00,78.0,69.4,29.92,ENE,68,0.0,0.0,75,0.00,FEW,,0.00,0.0,WeatherDisplay:10.37,2013-08-07 01:23:00,
2013-08-07 03:26:00,77.9,69.3,29.92,ENE,68,0.0,0.0,75,0.00,FEW,,0.00,0.0,WeatherDisplay:10.37,2013-08-07 01:26:00,
2013-08-07 03:27:00,77.9,69.3,29.92,ENE,68,0.0,0.0,75,0.00,FEW,,0.00,0.0,WeatherDisplay:10.37,2013-08-07 01:27:00,
2013-08-07 03:28:00,77.9,69.3,29.92,ENE,68,0.0,0.0,75,0.00,FEW,,0.00,0.0,WeatherDisplay:10.37,2013-08-07 01:28:00,
2013-08-07 03:31:00,77.9,69.3,29.92,ENE,68,0.0,0.0,75,0.00,FEW,,0.00,0.0,WeatherDisplay:10.37,2013-08-07 01:31:00,
2013-08-07 03:32:00,77.8,69.2,29.92,ENE,68,0.0,0.0,75,0.00,FEW,,0.00,0.0,WeatherDisplay:10.37,2013-08-07 01:32:00,
2013-08-07 03:33:00,77.7,69.1,29.92,ENE,68,1.2,0.0,75,0.00,FEW,,0.00,0.0,WeatherDisplay:10.37,2013-08-07 01:33:00,
2013-08-07 03:34:00,77.7,69.1,29.92,ENE,68,0.0,0.0,75,0.00,FEW,,0.00,0.0,WeatherDisplay:10.37,2013-08-07 01:34:00,
2013-08-07 03:36:00,77.6,69.0,29.92,ENE,68,0.0,0.0,75,0.00,FEW,,0.00,0.0,WeatherDisplay:10.37,2013-08-07 01:36:00,
2013-08-07 03:37:00,77.6,69.0,29.92,ENE,68,0.0,0.0,75,0.00,FEW,,0.00,0.0,WeatherDisplay:10.37,2013-08-07 01:37:00,
2013-08-07 03:39:00,77.5,68.9,29.92,ENE,68,0.0,0.0,75,0.00,FEW,,0.00,0.0,WeatherDisplay:10.37,2013-08-07 01:39:00,
2013-08-07 03:42:00,77.4,68.9,29.92,ENE,68,0.0,0.0,75,0.00,FEW,,0.00,0.0,WeatherDisplay:10.37,2013-08-07 01:42:00,
2013-08-07 03:43:00,77.4,68.9,29.92,ENE,68,0.0,0.0,75,0.00,FEW,,0.00,0.0,WeatherDisplay:10.37,2013-08-07 01:43:00,
2013-08-07 03:44:00,77.4,68.9,29.92,ENE,68,0.0,0.0,75,0.00,FEW,,0.00,0.0,WeatherDisplay:10.37,2013-08-07 01:44:00,
2013-08-07 03:46:00,77.3,68.4,29.92,ENE,68,0.0,0.0,74,0.00,FEW,,0.00,0.0,WeatherDisplay:10.37,2013-08-07 01:46:00,
2013-08-07 03:47:00,77.3,68.4,29.92,ENE,68,0.0,0.0,74,0.00,FEW,,0.00,0.0,WeatherDisplay:10.37,2013-08-07 01:47:00,
2013-08-07 03:48:00,77.3,68.4,29.92,ENE,68,0.0,0.0,74,0.00,FEW,,0.00,0.0,WeatherDisplay:10.37,2013-08-07 01:48:00,
2013-08-07 03:49:00,77.2,68.3,29.92,ENE,68,0.0,0.0,74,0.00,FEW,,0.00,0.0,WeatherDisplay:10.37,2013-08-07 01:49:00,
2013-08-07 03:51:00,77.2,68.7,29.92,ENE,68,0.0,0.0,75,0.00,FEW,,0.00,0.0,WeatherDisplay:10.37,2013-08-07 01:51:00,
2013-08-07 03:52:00,77.2,68.7,29.92,ENE,68,0.0,0.0,75,0.00,FEW,,0.00,0.0,WeatherDisplay:10.37,2013-08-07 01:52:00,
2013-08-07 03:53:00,77.2,68.7,29.92,ENE,68,0.0,0.0,75,0.00,FEW,,0.00,0.0,WeatherDisplay:10.37,2013-08-07 01:53:00,
2013-08-07 03:54:00,77.2,68.7,29.92,ENE,68,0.0,0.0,75,0.00,FEW,,0.00,0.0,WeatherDisplay:10.37,2013-08-07 01:54:00,
2013-08-07 03:57:00,77.1,68.6,29.92,ENE,68,0.0,0.0,75,0.00,FEW,,0.00,0.0,WeatherDisplay:10.37,2013-08-07 01:57:00,
2013-08-07 03:58:00,77.1,68.6,29.92,ENE,68,0.0,0.0,75,0.00,FEW,,0.00,0.0,WeatherDisplay:10.37,2013-08-07 01:58:00,
2013-08-07 03:59:00,77.1,68.6,29.92,ENE,68,0.0,0.0,75,0.00,FEW,,0.00,0.0,WeatherDisplay:10.37,2013-08-07 01:59:00,
2013-08-07 04:02:00,77.0,68.5,29.92,ENE,68,0.0,0.0,75,0.00,FEW,,0.00,0.0,WeatherDisplay:10.37,2013-08-07 02:02:00,
2013-08-07 04:03:00,77.0,68.5,29.92,ENE,68,0.0,0.0,75,0.00,FEW,,0.00,0.0,WeatherDisplay:10.37,2013-08-07 02:03:00,
2013-08-07 04:04:00,77.0,68.5,29.92,ENE,68,0.0,0.0,75,0.00,FEW,,0.00,0.0,WeatherDisplay:10.37,2013-08-07 02:04:00,
2013-08-07 04:05:00,77.0,68.5,29.92,ENE,68,0.0,0.0,75,0.00,FEW,,0.00,0.0,WeatherDisplay:10.37,2013-08-07 02:05:00,
2013-08-07 04:07:00,76.9,68.4,29.92,ENE,68,0.0,0.0,75,0.00,FEW,,0.00,0.0,WeatherDisplay:10.37,2013-08-07 02:07:00,
2013-08-07 04:09:00,76.9,68.4,29.92,ENE,68,0.0,0.0,75,0.00,FEW,,0.00,0.0,WeatherDisplay:10.37,2013-08-07 02:09:00,
2013-08-07 04:11:00,76.8,68.3,29.92,ENE,68,0.0,0.0,75,0.00,FEW,,0.00,0.0,WeatherDisplay:10.37,2013-08-07 02:11:00,
2013-08-07 04:13:00,76.8,68.3,29.92,ENE,68,0.0,0.0,75,0.00,FEW,,0.00,0.0,WeatherDisplay:10.37,2013-08-07 02:13:00,
2013-08-07 04:14:00,76.8,68.3,29.92,ENE,68,0.0,0.0,75,0.00,FEW,,0.00,0.0,WeatherDisplay:10.37,2013-08-07 02:14:00,
2013-08-07 04:15:00,76.8,68.3,29.92,ENE,68,0.0,0.0,75,0.00,FEW,,0.00,0.0,WeatherDisplay:10.37,2013-08-07 02:15:00,
2013-08-07 04:16:00,76.7,68.2,29.92,ENE,68,0.0,0.0,75,0.00,FEW,,0.00,0.0,WeatherDisplay:10.37,2013-08-07 02:16:00,
2013-08-07 04:18:00,76.7,68.2,29.92,ENE,68,0.0,0.0,75,0.00,FEW,,0.00,0.0,WeatherDisplay:10.37,2013-08-07 02:18:00,
2013-08-07 04:19:00,76.7,68.6,29.92,ENE,68,0.0,0.0,76,0.00,FEW,,0.00,0.0,WeatherDisplay:10.37,2013-08-07 02:19:00,
2013-08-07 04:20:00,76.7,68.6,29.92,ENE,68,0.0,0.0,76,0.00,FEW,,0.00,0.0,WeatherDisplay:10.37,2013-08-07 02:20:00,
2013-08-07 04:21:00,76.6,68.5,29.92,ENE,68,0.0,0.0,76,0.00,FEW,,0.00,0.0,WeatherDisplay:10.37,2013-08-07 02:21:00,
2013-08-07 04:23:00,76.6,68.5,29.92,ENE,68,0.0,0.0,76,0.00,FEW,,0.00,0.0,WeatherDisplay:10.37,2013-08-07 02:23:00,
2013-08-07 04:25:00,76.6,68.5,29.92,ENE,68,0.0,0.0,76,0.00,FEW,,0.00,0.0,WeatherDisplay:10.37,2013-08-07 02:25:00,
2013-08-07 04:26:00,76.6,68.5,29.92,ENE,68,0.0,0.0,76,0.00,FEW,,0.00,0.0,WeatherDisplay:10.37,2013-08-07 02:26:00,
2013-08-07 04:28:00,76.5,68.4,29.92,ENE,68,0.0,0.0,76,0.00,FEW,,0.00,0.0,WeatherDisplay:10.37,2013-08-07 02:28:00,
2013-08-07 04:30:00,76.5,68.4,29.92,ENE,68,0.0,0.0,76,0.00,FEW,,0.00,0.0,WeatherDisplay:10.37,2013-08-07 02:30:00,
2013-08-07 04:31:00,76.5,68.4,29.92,ENE,68,0.0,0.0,76,0.00,FEW,,0.00,0.0,WeatherDisplay:10.37,2013-08-07 02:31:00,
2013-08-07 04:33:00,76.5,68.4,29.92,ENE,68,0.0,0.0,76,0.00,FEW,,0.00,0.0,WeatherDisplay:10.37,2013-08-07 02:33:00,
2013-08-07 04:35:00,76.4,68.3,29.92,ENE,68,0.0,0.0,76,0.00,FEW,,0.00,0.0,WeatherDisplay:10.37,2013-08-07 02:35:00,
2013-08-07 04:36:00,76.4,68.3,29.92,ENE,68,0.0,0.0,76,0.00,FEW,,0.00,0.0,WeatherDisplay:10.37,2013-08-07 02:36:00,
2013-08-07 04:37:00,76.4,68.3,29.92,ENE,68,0.0,0.0,76,0.00,FEW,,0.00,0.0,WeatherDisplay:10.37,2013-08-07 02:37:00,
2013-08-07 04:38:00,76.4,68.3,29.92,ENE,68,0.0,0.0,76,0.00,FEW,,0.00,0.0,WeatherDisplay:10.37,2013-08-07 02:38:00,
2013-08-07 04:41:00,76.4,68.3,29.92,ENE,68,0.0,0.0,76,0.00,FEW,,0.00,0.0,WeatherDisplay:10.37,2013-08-07 02:41:00,
2013-08-07 04:42:00,76.4,68.7,29.92,ENE,68,0.0,0.0,77,0.00,FEW,,0.00,0.0,WeatherDisplay:10.37,2013-08-07 02:42:00,
2013-08-07 04:43:00,76.4,68.7,29.92,ENE,68,0.0,0.0,77,0.00,FEW,,0.00,0.0,WeatherDisplay:10.37,2013-08-07 02:43:00,
2013-08-07 04:46:00,76.4,68.7,29.92,ENE,68,0.0,0.0,77,0.00,FEW,,0.00,0.0,WeatherDisplay:10.37,2013-08-07 02:46:00,
2013-08-07 04:47:00,76.3,68.6,29.92,ENE,68,0.0,0.0,77,0.00,FEW,,0.00,0.0,WeatherDisplay:10.37,2013-08-07 02:47:00,
2013-08-07 04:48:00,76.3,68.6,29.92,ENE,68,0.0,0.0,77,0.00,FEW,,0.00,0.0,WeatherDisplay:10.37,2013-08-07 02:48:00,
2013-08-07 04:51:00,76.3,68.6,29.92,ENE,68,0.0,0.0,77,0.00,FEW,,0.00,0.0,WeatherDisplay:10.37,2013-08-07 02:51:00,
2013-08-07 04:52:00,76.3,68.6,29.92,ENE,68,0.0,0.0,77,0.00,FEW,,0.00,0.0,WeatherDisplay:10.37,2013-08-07 02:52:00,
2013-08-07 04:54:00,76.3,68.6,29.92,ENE,68,0.0,0.0,77,0.00,FEW,,0.00,0.0,WeatherDisplay:10.37,2013-08-07 02:54:00,
2013-08-07 04:57:00,76.3,68.6,29.92,ENE,68,0.0,0.0,77,0.00,FEW,,0.00,0.0,WeatherDisplay:10.37,2013-08-07 02:57:00,
2013-08-07 04:58:00,76.2,68.5,29.92,ENE,68,0.0,0.0,77,0.00,FEW,,0.00,0.0,WeatherDisplay:10.37,2013-08-07 02:58:00,
2013-08-07 04:59:00,76.2,68.5,29.92,ENE,68,0.0,0.0,77,0.00,FEW,,0.00,0.0,WeatherDisplay:10.37,2013-08-07 02:59:00,
2013-08-07 05:02:00,76.1,68.4,29.92,ENE,68,0.0,0.0,77,0.00,FEW,,0.00,0.0,WeatherDisplay:10.37,2013-08-07 03:02:00,
2013-08-07 05:03:00,76.1,68.4,29.92,ENE,68,0.0,0.0,77,0.00,FEW,,0.00,0.0,WeatherDisplay:10.37,2013-08-07 03:03:00,
2013-08-07 05:04:00,76.1,68.4,29.92,ENE,68,0.0,0.0,77,0.00,FEW,,0.00,0.0,WeatherDisplay:10.37,2013-08-07 03:04:00,
2013-08-07 05:05:00,76.1,68.4,29.92,ENE,68,0.0,0.0,77,0.00,FEW,,0.00,0.0,WeatherDisplay:10.37,2013-08-07 03:05:00,
2013-08-07 05:07:00,76.0,68.3,29.92,ENE,68,0.0,0.0,77,0.00,FEW,,0.00,0.0,WeatherDisplay:10.37,2013-08-07 03:07:00,
2013-08-07 05:08:00,76.1,68.4,29.92,ENE,68,0.0,0.0,77,0.00,FEW,,0.00,0.0,WeatherDisplay:10.37,2013-08-07 03:08:00,
2013-08-07 05:09:00,76.1,68.4,29.92,ENE,68,0.0,0.0,77,0.00,FEW,,0.00,0.0,WeatherDisplay:10.37,2013-08-07 03:09:00,
2013-08-07 05:10:00,76.0,68.3,29.92,ENE,68,0.0,0.0,77,0.00,FEW,,0.00,0.0,WeatherDisplay:10.37,2013-08-07 03:10:00,
2013-08-07 05:12:00,76.0,68.3,29.92,ENE,68,0.0,0.0,77,0.00,FEW,,0.00,0.0,WeatherDisplay:10.37,2013-08-07 03:12:00,
2013-08-07 05:13:00,76.0,68.3,29.92,ENE,68,0.0,0.0,77,0.00,FEW,,0.00,0.0,WeatherDisplay:10.37,2013-08-07 03:13:00,
2013-08-07 05:14:00,76.0,68.3,29.92,ENE,68,0.0,0.0,77,0.00,FEW,,0.00,0.0,WeatherDisplay:10.37,2013-08-07 03:14:00,
2013-08-07 05:15:00,76.0,68.3,29.92,ENE,68,0.0,0.0,77,0.00,FEW,,0.00,0.0,WeatherDisplay:10.37,2013-08-07 03:15:00,
2013-08-07 05:18:00,75.9,68.2,29.92,ENE,68,0.0,0.0,77,0.00,FEW,,0.00,0.0,WeatherDisplay:10.37,2013-08-07 03:18:00,
2013-08-07 05:20:00,75.9,68.2,29.92,ENE,68,0.0,0.0,77,0.00,FEW,,0.00,0.0,WeatherDisplay:10.37,2013-08-07 03:20:00,
2013-08-07 05:23:00,75.9,68.5,29.92,ENE,68,0.0,0.0,78,0.00,FEW,,0.00,0.0,WeatherDisplay:10.37,2013-08-07 03:23:00,
2013-08-07 05:24:00,75.8,68.4,29.92,ENE,68,0.0,0.0,78,0.00,FEW,,0.00,0.0,WeatherDisplay:10.37,2013-08-07 03:24:00,
2013-08-07 05:25:00,75.9,68.5,29.92,ENE,68,0.0,0.0,78,0.00,FEW,,0.00,0.0,WeatherDisplay:10.37,2013-08-07 03:25:00,
2013-08-07 05:28:00,75.8,68.4,29.92,ENE,68,0.0,0.0,78,0.00,FEW,,0.00,0.0,WeatherDisplay:10.37,2013-08-07 03:28:00,
2013-08-07 05:29:00,75.8,68.4,29.92,ENE,68,0.0,0.0,78,0.00,FEW,,0.00,0.0,WeatherDisplay:10.37,2013-08-07 03:29:00,
2013-08-07 05:30:00,75.8,68.4,29.92,ENE,68,0.0,0.0,78,0.00,FEW,,0.00,0.0,WeatherDisplay:10.37,2013-08-07 03:30:00,
2013-08-07 05:31:00,75.8,68.4,29.92,ENE,68,0.0,0.0,78,0.00,FEW,,0.00,0.0,WeatherDisplay:10.37,2013-08-07 03:31:00,
2013-08-07 05:33:00,75.8,68.4,29.92,ENE,68,0.0,0.0,78,0.00,FEW,,0.00,0.0,WeatherDisplay:10.37,2013-08-07 03:33:00,
2013-08-07 05:34:00,75.8,68.4,29.92,ENE,68,0.0,0.0,78,0.00,FEW,,0.00,0.0,WeatherDisplay:10.37,2013-08-07 03:34:00,
2013-08-07 05:35:00,75.8,68.4,29.92,ENE,68,0.0,0.0,78,0.00,FEW,,0.00,0.0,WeatherDisplay:10.37,2013-08-07 03:35:00,
2013-08-07 05:36:00,75.8,68.4,29.92,ENE,68,0.0,0.0,78,0.00,FEW,,0.00,0.0,WeatherDisplay:10.37,2013-08-07 03:36:00,
2013-08-07 05:39:00,75.8,68.4,29.92,ENE,68,0.0,0.0,78,0.00,FEW,,0.00,0.0,WeatherDisplay:10.37,2013-08-07 03:39:00,
2013-08-07 05:40:00,75.8,68.4,29.92,ENE,68,0.0,0.0,78,0.00,FEW,,0.00,0.0,WeatherDisplay:10.37,2013-08-07 03:40:00,
2013-08-07 05:42:00,75.7,68.7,29.92,ENE,68,0.0,0.0,79,0.00,FEW,,0.00,0.0,WeatherDisplay:10.37,2013-08-07 03:42:00,
2013-08-07 05:44:00,75.7,68.7,29.92,ENE,68,0.0,0.0,79,0.00,FEW,,0.00,0.0,WeatherDisplay:10.37,2013-08-07 03:44:00,
2013-08-07 05:45:00,75.7,68.7,29.93,ENE,68,0.0,0.0,79,0.00,FEW,,0.00,0.0,WeatherDisplay:10.37,2013-08-07 03:45:00,
2013-08-07 05:46:00,75.7,68.7,29.93,ENE,68,0.0,0.0,79,0.00,FEW,,0.00,0.0,WeatherDisplay:10.37,2013-08-07 03:46:00,
2013-08-07 05:47:00,75.7,68.7,29.93,ENE,68,0.0,0.0,79,0.00,FEW,,0.00,0.0,WeatherDisplay:10.37,2013-08-07 03:47:00,
2013-08-07 05:50:00,75.6,68.6,29.93,ENE,68,0.0,0.0,79,0.00,FEW,,0.00,0.0,WeatherDisplay:10.37,2013-08-07 03:50:00,
2013-08-07 05:51:00,75.6,68.6,29.93,ENE,68,0.0,0.0,79,0.00,FEW,,0.00,0.0,WeatherDisplay:10.37,2013-08-07 03:51:00,
2013-08-07 05:52:00,75.6,68.6,29.93,ENE,68,0.0,0.0,79,0.00,FEW,,0.00,0.0,WeatherDisplay:10.37,2013-08-07 03:52:00,
2013-08-07 05:55:00,75.6,68.6,29.93,ENE,68,0.0,0.0,79,0.00,FEW,,0.00,0.0,WeatherDisplay:10.37,2013-08-07 03:55:00,
2013-08-07 05:56:00,75.6,68.6,29.93,ENE,68,0.0,0.0,79,0.00,FEW,,0.00,0.0,WeatherDisplay:10.37,2013-08-07 03:56:00,
2013-08-07 05:58:00,75.6,69.0,29.93,ENE,68,0.0,0.0,80,0.00,FEW,,0.00,0.0,WeatherDisplay:10.37,2013-08-07 03:58:00,
2013-08-07 06:00:00,75.6,69.0,29.93,ENE,68,0.0,0.0,80,0.00,FEW,,0.00,0.0,WeatherDisplay:10.37,2013-08-07 04:00:00,
2013-08-07 06:01:00,75.6,69.0,29.93,ENE,68,0.0,0.0,80,0.00,FEW,,0.00,0.0,WeatherDisplay:10.37,2013-08-07 04:01:00,
2013-08-07 06:02:00,75.6,69.0,29.93,ENE,68,0.0,0.0,80,0.00,FEW,,0.00,0.0,WeatherDisplay:10.37,2013-08-07 04:02:00,
2013-08-07 06:06:00,75.5,68.9,29.93,ENE,68,0.0,0.0,80,0.00,FEW,,0.00,5.0,WeatherDisplay:10.37,2013-08-07 04:06:00,
2013-08-07 06:07:00,75.5,68.9,29.93,ENE,68,0.0,0.0,80,0.00,FEW,,0.00,5.0,WeatherDisplay:10.37,2013-08-07 04:07:00,
2013-08-07 06:11:00,75.4,68.8,29.93,ENE,68,0.0,0.0,80,0.00,FEW,,0.00,7.0,WeatherDisplay:10.37,2013-08-07 04:11:00,
2013-08-07 06:12:00,75.4,68.8,29.93,ENE,68,0.0,0.0,80,0.00,FEW,,0.00,7.0,WeatherDisplay:10.37,2013-08-07 04:12:00,
2013-08-07 06:16:00,75.3,68.7,29.93,ENE,68,0.0,0.0,80,0.00,SCT,,0.00,11.0,WeatherDisplay:10.37,2013-08-07 04:16:00,
2013-08-07 06:17:00,75.3,68.7,29.93,ENE,68,0.0,0.0,80,0.00,SCT,,0.00,11.0,WeatherDisplay:10.37,2013-08-07 04:17:00,
2013-08-07 06:21:00,75.3,69.1,29.93,ENE,68,1.2,0.0,81,0.00,SCT,,0.00,12.0,WeatherDisplay:10.37,2013-08-07 04:21:00,
2013-08-07 06:22:00,75.3,69.1,29.93,ENE,68,0.0,0.0,81,0.00,SCT,,0.00,14.0,WeatherDisplay:10.37,2013-08-07 04:22:00,
2013-08-07 06:23:00,75.3,69.1,29.93,ENE,68,0.0,0.0,81,0.00,SCT,,0.00,14.0,WeatherDisplay:10.37,2013-08-07 04:23:00,
2013-08-07 06:26:00,75.2,69.0,29.93,ENE,67,0.0,0.0,81,0.00,SCT,,0.00,18.0,WeatherDisplay:10.37,2013-08-07 04:26:00,
2013-08-07 06:27:00,75.2,69.0,29.93,ENE,67,0.0,0.0,81,0.00,SCT,,0.00,19.0,WeatherDisplay:10.37,2013-08-07 04:27:00,
2013-08-07 06:28:00,75.2,69.0,29.93,ENE,67,0.0,0.0,81,0.00,SCT,,0.00,21.0,WeatherDisplay:10.37,2013-08-07 04:28:00,
2013-08-07 06:31:00,75.3,69.4,29.93,ENE,65,0.0,0.0,82,0.00,SCT,,0.00,25.0,WeatherDisplay:10.37,2013-08-07 04:31:00,
2013-08-07 06:33:00,75.3,69.4,29.93,ENE,65,0.0,0.0,82,0.00,SCT,,0.00,28.0,WeatherDisplay:10.37,2013-08-07 04:33:00,
2013-08-07 06:36:00,75.4,69.5,29.93,ENE,65,0.0,0.0,82,0.00,FEW,,0.00,32.0,WeatherDisplay:10.37,2013-08-07 04:36:00,
2013-08-07 06:38:00,75.5,69.6,29.93,ENE,65,0.0,0.0,82,0.00,FEW,,0.00,33.0,WeatherDisplay:10.37,2013-08-07 04:38:00,
2013-08-07 06:39:00,75.4,69.5,29.93,ENE,65,0.0,0.0,82,0.00,FEW,,0.00,37.0,WeatherDisplay:10.37,2013-08-07 04:39:00,
2013-08-07 06:41:00,75.4,69.5,29.93,ENE,65,1.2,0.0,82,0.00,FEW,,0.00,40.0,WeatherDisplay:10.37,2013-08-07 04:41:00,
2013-08-07 06:43:00,75.4,69.5,29.93,ENE,76,0.0,0.0,82,0.00,FEW,,0.00,44.0,WeatherDisplay:10.37,2013-08-07 04:43:00,
2013-08-07 06:44:00,75.4,69.5,29.93,ENE,76,0.0,0.0,82,0.00,FEW,,0.00,44.0,WeatherDisplay:10.37,2013-08-07 04:44:00,
2013-08-07 06:47:00,75.3,69.1,29.93,East,80,0.0,0.0,81,0.00,FEW,,0.00,51.0,WeatherDisplay:10.37,2013-08-07 04:47:00,
2013-08-07 06:49:00,75.3,69.1,29.93,East,80,0.0,0.0,81,0.00,FEW,,0.00,56.0,WeatherDisplay:10.37,2013-08-07 04:49:00,
2013-08-07 06:51:00,75.3,68.7,29.93,East,80,0.0,0.0,80,0.00,FEW,,0.00,58.0,WeatherDisplay:10.37,2013-08-07 04:51:00,
2013-08-07 06:52:00,75.3,68.7,29.93,East,80,0.0,0.0,80,0.00,FEW,,0.00,58.0,WeatherDisplay:10.37,2013-08-07 04:52:00,
2013-08-07 06:54:00,75.3,68.7,29.93,East,80,0.0,0.0,80,0.00,FEW,,0.00,67.0,WeatherDisplay:10.37,2013-08-07 04:54:00,
2013-08-07 06:55:00,75.3,68.7,29.93,East,80,0.0,0.0,80,0.00,FEW,,0.00,67.0,WeatherDisplay:10.37,2013-08-07 04:55:00,
2013-08-07 06:56:00,75.3,68.7,29.93,East,80,0.0,0.0,80,0.00,FEW,,0.00,67.0,WeatherDisplay:10.37,2013-08-07 04:56:00,
2013-08-07 06:57:00,75.4,68.4,29.93,East,80,0.0,0.0,79,0.00,FEW,,0.00,69.0,WeatherDisplay:10.37,2013-08-07 04:57:00,
2013-08-07 06:59:00,75.4,68.4,29.94,East,80,0.0,0.0,79,0.00,FEW,,0.00,83.0,WeatherDisplay:10.37,2013-08-07 04:59:00,
2013-08-07 07:00:00,75.4,68.4,29.94,East,80,0.0,0.0,79,0.00,FEW,,0.00,83.0,WeatherDisplay:10.37,2013-08-07 05:00:00,
2013-08-07 07:01:00,75.4,68.4,29.94,East,80,0.0,0.0,79,0.00,FEW,,0.00,84.0,WeatherDisplay:10.37,2013-08-07 05:01:00,
2013-08-07 07:02:00,75.4,68.1,29.94,East,80,0.0,0.0,78,0.00,FEW,,0.00,88.0,WeatherDisplay:10.37,2013-08-07 05:02:00,
2013-08-07 07:05:00,75.5,68.2,29.93,East,91,0.0,0.1,78,0.00,FEW,,0.00,93.0,WeatherDisplay:10.37,2013-08-07 05:05:00,
2013-08-07 07:06:00,75.6,67.9,29.94,East,98,0.0,0.0,77,0.00,FEW,,0.00,100.0,WeatherDisplay:10.37,2013-08-07 05:06:00,
2013-08-07 07:08:00,75.6,67.9,29.94,East,96,0.0,0.0,77,0.00,FEW,,0.00,100.0,WeatherDisplay:10.37,2013-08-07 05:08:00,
2013-08-07 07:10:00,75.7,67.6,29.94,East,96,0.0,0.0,76,0.00,FEW,,0.00,109.0,WeatherDisplay:10.37,2013-08-07 05:10:00,
2013-08-07 07:11:00,75.7,67.6,29.93,East,96,0.0,0.0,76,0.00,FEW,,0.00,114.0,WeatherDisplay:10.37,2013-08-07 05:11:00,
2013-08-07 07:14:00,75.9,67.8,29.94,East,91,0.0,0.0,76,0.00,FEW,,0.00,118.0,WeatherDisplay:10.37,2013-08-07 05:14:00,
2013-08-07 07:15:00,76.0,67.9,29.94,East,94,0.0,0.0,76,0.00,FEW,,0.00,123.0,WeatherDisplay:10.37,2013-08-07 05:15:00,
2013-08-07 07:16:00,76.0,67.9,29.94,East,94,0.0,0.0,76,0.00,FEW,,0.00,128.0,WeatherDisplay:10.37,2013-08-07 05:16:00,
2013-08-07 07:17:00,76.1,68.0,29.94,East,92,0.0,0.0,76,0.00,FEW,,0.00,128.0,WeatherDisplay:10.37,2013-08-07 05:17:00,
2013-08-07 07:19:00,76.2,67.7,29.94,East,89,1.2,0.0,75,0.00,FEW,,0.00,135.0,WeatherDisplay:10.37,2013-08-07 05:19:00,
2013-08-07 07:20:00,76.2,67.7,29.94,East,88,0.0,0.0,75,0.00,FEW,,0.00,139.0,WeatherDisplay:10.37,2013-08-07 05:20:00,
2013-08-07 07:22:00,76.3,67.8,29.94,ENE,66,0.0,0.0,75,0.00,FEW,,0.00,142.0,WeatherDisplay:10.37,2013-08-07 05:22:00,
2013-08-07 07:23:00,76.4,67.9,29.94,ENE,76,1.2,0.0,75,0.00,FEW,,0.00,146.0,WeatherDisplay:10.37,2013-08-07 05:23:00,
2013-08-07 07:24:00,76.5,67.6,29.94,ENE,76,0.0,0.0,74,0.00,FEW,,0.00,151.0,WeatherDisplay:10.37,2013-08-07 05:24:00,
2013-08-07 07:26:00,76.6,67.7,29.94,ENE,76,0.0,0.1,74,0.00,FEW,,0.00,98.0,WeatherDisplay:10.37,2013-08-07 05:26:00,
2013-08-07 07:27:00,76.6,67.7,29.94,ENE,76,1.2,0.0,74,0.00,FEW,,0.00,98.0,WeatherDisplay:10.37,2013-08-07 05:27:00,
2013-08-07 07:28:00,76.7,67.8,29.94,ENE,76,0.0,0.0,74,0.00,FEW,,0.00,98.0,WeatherDisplay:10.37,2013-08-07 05:28:00,
2013-08-07 07:29:00,76.8,67.9,29.94,ENE,76,0.0,0.0,74,0.00,FEW,,0.00,53.0,WeatherDisplay:10.37,2013-08-07 05:29:00,
2013-08-07 07:32:00,76.9,67.6,29.94,ENE,74,0.0,0.0,73,0.00,FEW,,0.00,63.0,WeatherDisplay:10.37,2013-08-07 05:32:00,
2013-08-07 07:33:00,76.9,67.6,29.94,ENE,74,0.0,0.0,73,0.00,FEW,,0.00,76.0,WeatherDisplay:10.37,2013-08-07 05:33:00,
2013-08-07 07:34:00,77.0,67.7,29.94,ENE,74,0.0,0.0,73,0.00,FEW,,0.00,69.0,WeatherDisplay:10.37,2013-08-07 05:34:00,
2013-08-07 07:37:00,77.2,67.9,29.94,ENE,74,0.0,0.1,73,0.00,SCT,,0.00,54.0,WeatherDisplay:10.37,2013-08-07 05:37:00,
2013-08-07 07:38:00,77.2,67.9,29.94,ENE,71,1.2,0.0,73,0.00,SCT,,0.00,56.0,WeatherDisplay:10.37,2013-08-07 05:38:00,
2013-08-07 07:39:00,77.3,68.0,29.94,ENE,74,0.0,0.0,73,0.00,SCT,,0.00,56.0,WeatherDisplay:10.37,2013-08-07 05:39:00,
2013-08-07 07:40:00,77.4,68.1,29.94,ENE,74,0.0,0.0,73,0.00,SCT,,0.00,62.0,WeatherDisplay:10.37,2013-08-07 05:40:00,
2013-08-07 07:43:00,77.6,68.3,29.94,ENE,74,0.0,0.0,73,0.00,SCT,,0.00,130.0,WeatherDisplay:10.37,2013-08-07 05:43:00,
2013-08-07 07:44:00,77.7,68.4,29.94,ENE,74,0.0,0.0,73,0.00,SCT,,0.00,116.0,WeatherDisplay:10.37,2013-08-07 05:44:00,
2013-08-07 07:46:00,77.8,68.4,29.94,ENE,74,0.0,0.0,73,0.00,SCT,,0.00,58.0,WeatherDisplay:10.37,2013-08-07 05:46:00,
2013-08-07 07:48:00,78.0,68.6,29.94,ENE,74,0.0,0.0,73,0.00,SCT,,0.00,58.0,WeatherDisplay:10.37,2013-08-07 05:48:00,
2013-08-07 07:49:00,78.1,68.7,29.94,ENE,74,1.2,1.2,73,0.00,SCT,,0.00,91.0,WeatherDisplay:10.37,2013-08-07 05:49:00,
2013-08-07 07:51:00,78.2,68.8,29.94,ENE,74,0.0,0.0,73,0.00,FEW,,0.00,153.0,WeatherDisplay:10.37,2013-08-07 05:51:00,
2013-08-07 07:53:00,78.3,68.5,29.94,ENE,74,0.0,0.0,72,0.00,FEW,,0.00,229.0,WeatherDisplay:10.37,2013-08-07 05:53:00,
2013-08-07 07:54:00,78.4,68.6,29.94,ENE,74,0.0,0.0,72,0.00,FEW,,0.00,232.0,WeatherDisplay:10.37,2013-08-07 05:54:00,
2013-08-07 07:57:00,78.6,68.8,29.94,East,94,1.2,0.0,72,0.00,FEW,,0.00,239.0,WeatherDisplay:10.37,2013-08-07 05:57:00,
2013-08-07 07:58:00,78.7,68.9,29.94,East,93,0.0,0.0,72,0.00,FEW,,0.00,244.0,WeatherDisplay:10.37,2013-08-07 05:58:00,
2013-08-07 07:59:00,78.8,68.6,29.94,East,91,0.0,0.1,71,0.00,FEW,,0.00,241.0,WeatherDisplay:10.37,2013-08-07 05:59:00,
2013-08-07 08:02:00,79.2,68.6,29.94,East,92,0.0,0.0,70,0.00,FEW,,0.00,104.0,WeatherDisplay:10.37,2013-08-07 06:02:00,
2013-08-07 08:04:00,79.3,68.7,29.94,East,92,0.0,0.0,70,0.00,FEW,,0.00,63.0,WeatherDisplay:10.37,2013-08-07 06:04:00,
2013-08-07 08:05:00,79.5,68.9,29.94,East,92,0.0,0.0,70,0.00,FEW,,0.00,63.0,WeatherDisplay:10.37,2013-08-07 06:05:00,
2013-08-07 08:07:00,79.9,68.8,29.94,East,92,0.0,0.0,69,0.00,FEW,,0.00,65.0,WeatherDisplay:10.37,2013-08-07 06:07:00,
2013-08-07 08:09:00,80.1,69.0,29.95,East,92,0.0,0.0,69,0.00,FEW,,0.00,65.0,WeatherDisplay:10.37,2013-08-07 06:09:00,
2013-08-07 08:10:00,80.2,69.1,29.95,East,92,0.0,0.0,69,0.00,FEW,,0.00,65.0,WeatherDisplay:10.37,2013-08-07 06:10:00,
2013-08-07 08:12:00,80.5,69.0,29.95,East,94,0.0,0.0,68,0.00,SCT,,0.00,67.0,WeatherDisplay:10.37,2013-08-07 06:12:00,
2013-08-07 08:14:00,80.7,69.2,29.95,ESE,104,0.0,0.0,68,0.00,SCT,,0.00,109.0,WeatherDisplay:10.37,2013-08-07 06:14:00,
2013-08-07 08:15:00,80.7,69.2,29.95,ESE,104,0.0,0.0,68,0.00,SCT,,0.00,109.0,WeatherDisplay:10.37,2013-08-07 06:15:00,
2013-08-07 08:18:00,81.2,69.2,29.95,ESE,104,0.0,0.0,67,0.00,FEW,,0.00,304.0,WeatherDisplay:10.37,2013-08-07 06:18:00,
2013-08-07 08:19:00,81.3,69.3,29.95,ESE,104,0.0,0.0,67,0.00,FEW,,0.00,309.0,WeatherDisplay:10.37,2013-08-07 06:19:00,
2013-08-07 08:20:00,81.3,69.3,29.95,ESE,104,0.0,0.0,67,0.00,FEW,,0.00,309.0,WeatherDisplay:10.37,2013-08-07 06:20:00,
2013-08-07 08:21:00,81.4,69.4,29.95,ESE,104,0.0,0.0,67,0.00,FEW,,0.00,309.0,WeatherDisplay:10.37,2013-08-07 06:21:00,
2013-08-07 08:25:00,81.9,69.0,29.95,ESE,104,0.0,0.0,65,0.00,FEW,,0.00,322.0,WeatherDisplay:10.37,2013-08-07 06:25:00,
2013-08-07 08:26:00,82.0,69.1,29.95,ESE,104,0.0,0.0,65,0.00,FEW,,0.00,327.0,WeatherDisplay:10.37,2013-08-07 06:26:00,
2013-08-07 08:30:00,82.6,69.6,29.95,ESE,104,0.0,0.0,65,0.00,FEW,,0.00,341.0,WeatherDisplay:10.37,2013-08-07 06:30:00,
2013-08-07 08:31:00,82.7,69.3,29.95,East,101,0.0,0.0,64,0.00,FEW,,0.00,341.0,WeatherDisplay:10.37,2013-08-07 06:31:00,
2013-08-07 08:35:00,83.0,69.6,29.95,East,100,0.0,0.0,64,0.00,FEW,,0.00,128.0,WeatherDisplay:10.37,2013-08-07 06:35:00,
2013-08-07 08:36:00,83.1,69.7,29.95,East,96,0.0,0.0,64,0.00,FEW,,0.00,128.0,WeatherDisplay:10.37,2013-08-07 06:36:00,
2013-08-07 08:37:00,83.2,69.8,29.95,East,96,0.0,0.0,64,0.00,FEW,,0.00,74.0,WeatherDisplay:10.37,2013-08-07 06:37:00,
2013-08-07 08:40:00,83.4,69.9,29.95,SE,146,0.0,0.0,64,0.00,FEW,,0.00,281.0,WeatherDisplay:10.37,2013-08-07 06:40:00,
2013-08-07 08:41:00,83.4,69.9,29.95,SE,146,0.0,0.0,64,0.00,FEW,,0.00,281.0,WeatherDisplay:10.37,2013-08-07 06:41:00,
2013-08-07 08:42:00,83.5,70.0,29.95,SE,142,0.0,0.0,64,0.00,FEW,,0.00,311.0,WeatherDisplay:10.37,2013-08-07 06:42:00,
2013-08-07 08:45:00,83.5,70.5,29.95,SE,146,0.0,0.0,65,0.00,FEW,,0.00,132.0,WeatherDisplay:10.37,2013-08-07 06:45:00,
2013-08-07 08:46:00,83.5,70.0,29.95,SE,146,1.2,0.0,64,0.00,FEW,,0.00,132.0,WeatherDisplay:10.37,2013-08-07 06:46:00,
2013-08-07 08:47:00,83.5,70.5,29.95,SE,146,0.0,0.0,65,0.00,FEW,,0.00,77.0,WeatherDisplay:10.37,2013-08-07 06:47:00,
2013-08-07 08:50:00,83.5,70.5,29.95,SE,146,0.0,0.0,65,0.00,FEW,,0.00,79.0,WeatherDisplay:10.37,2013-08-07 06:50:00,
2013-08-07 08:51:00,83.6,70.6,29.95,SE,146,0.0,0.0,65,0.00,SCT,,0.00,79.0,WeatherDisplay:10.37,2013-08-07 06:51:00,
2013-08-07 08:52:00,83.6,70.6,29.95,SE,143,2.3,2.3,65,0.00,SCT,,0.00,79.0,WeatherDisplay:10.37,2013-08-07 06:52:00,
2013-08-07 08:54:00,83.7,70.2,29.95,SE,138,1.0,0.0,64,0.00,SCT,,0.00,81.0,WeatherDisplay:10.37,2013-08-07 06:54:00,
2013-08-07 08:56:00,83.9,70.4,29.95,SE,130,0.0,0.0,64,0.00,SCT,,0.00,81.0,WeatherDisplay:10.37,2013-08-07 06:56:00,
2013-08-07 08:57:00,83.9,70.4,29.95,SE,130,0.0,0.0,64,0.00,SCT,,0.00,172.0,WeatherDisplay:10.37,2013-08-07 06:57:00,
2013-08-07 08:58:00,83.9,70.4,29.95,SE,130,0.0,0.0,64,0.00,SCT,,0.00,172.0,WeatherDisplay:10.37,2013-08-07 06:58:00,
2013-08-07 08:59:00,84.0,70.5,29.95,SE,130,0.0,0.0,64,0.00,SCT,,0.00,172.0,WeatherDisplay:10.37,2013-08-07 06:59:00,
2013-08-07 09:01:00,84.2,70.7,29.95,SE,130,0.0,0.0,64,0.00,FEW,,0.00,420.0,WeatherDisplay:10.37,2013-08-07 07:01:00,
2013-08-07 09:03:00,84.4,70.4,29.95,SE,139,1.2,0.0,63,0.00,FEW,,0.00,427.0,WeatherDisplay:10.37,2013-08-07 07:03:00,
2013-08-07 09:04:00,84.4,70.4,29.95,ESE,113,2.0,2.0,63,0.00,FEW,,0.00,431.0,WeatherDisplay:10.37,2013-08-07 07:04:00,
2013-08-07 09:06:00,84.5,70.5,29.95,ESE,110,0.0,0.0,63,0.00,FEW,,0.00,431.0,WeatherDisplay:10.37,2013-08-07 07:06:00,
2013-08-07 09:08:00,84.5,70.0,29.96,ENE,65,0.0,0.0,62,0.00,FEW,,0.00,439.0,WeatherDisplay:10.37,2013-08-07 07:08:00,
2013-08-07 09:09:00,84.5,70.0,29.95,ENE,65,1.2,1.2,62,0.00,FEW,,0.00,446.0,WeatherDisplay:10.37,2013-08-07 07:09:00,
2013-08-07 09:11:00,84.5,70.0,29.95,ENE,59,3.5,3.5,62,0.00,CLR,,0.00,448.0,WeatherDisplay:10.37,2013-08-07 07:11:00,
2013-08-07 09:14:00,84.4,70.4,29.95,NE,51,0.0,0.1,63,0.00,CLR,,0.00,457.0,WeatherDisplay:10.37,2013-08-07 07:14:00,
2013-08-07 09:16:00,84.5,70.0,29.95,NE,44,0.0,0.0,62,0.00,CLR,,0.00,457.0,WeatherDisplay:10.37,2013-08-07 07:16:00,
2013-08-07 09:19:00,84.4,70.0,29.95,ENE,59,0.0,0.0,62,0.00,CLR,,0.00,462.0,WeatherDisplay:10.37,2013-08-07 07:19:00,
2013-08-07 09:21:00,84.6,70.6,29.95,ENE,63,0.0,0.0,63,0.00,FEW,,0.00,97.0,WeatherDisplay:10.37,2013-08-07 07:21:00,
2013-08-07 09:22:00,84.6,70.6,29.95,NE,49,1.2,1.2,63,0.00,FEW,,0.00,105.0,WeatherDisplay:10.37,2013-08-07 07:22:00,
2013-08-07 09:25:00,84.9,70.4,29.95,ENE,67,0.0,0.0,62,0.00,FEW,,0.00,142.0,WeatherDisplay:10.37,2013-08-07 07:25:00,
2013-08-07 09:26:00,85.0,70.5,29.95,ENE,67,0.0,0.1,62,0.00,FEW,,0.00,90.0,WeatherDisplay:10.37,2013-08-07 07:26:00,
2013-08-07 09:27:00,85.0,70.5,29.95,ENE,68,0.0,0.1,62,0.00,FEW,,0.00,90.0,WeatherDisplay:10.37,2013-08-07 07:27:00,
2013-08-07 09:30:00,85.4,70.4,29.95,East,86,1.2,0.0,61,0.00,SCT,,0.00,90.0,WeatherDisplay:10.37,2013-08-07 07:30:00,
2013-08-07 09:31:00,85.5,70.5,29.95,East,86,0.0,0.0,61,0.00,SCT,,0.00,90.0,WeatherDisplay:10.37,2013-08-07 07:31:00,
2013-08-07 09:32:00,85.6,70.6,29.95,East,86,0.0,0.0,61,0.00,SCT,,0.00,90.0,WeatherDisplay:10.37,2013-08-07 07:32:00,
2013-08-07 09:33:00,85.7,70.7,29.95,East,86,0.0,0.0,61,0.00,SCT,,0.00,91.0,WeatherDisplay:10.37,2013-08-07 07:33:00,
2013-08-07 09:36:00,86.0,71.5,29.95,NW,324,1.2,1.2,62,0.00,BKN,,0.00,93.0,WeatherDisplay:10.37,2013-08-07 07:36:00,
2013-08-07 09:37:00,86.0,71.5,29.95,NW,319,1.2,1.2,62,0.00,BKN,,0.00,93.0,WeatherDisplay:10.37,2013-08-07 07:37:00,
2013-08-07 09:38:00,85.9,71.4,29.95,WNW,292,6.0,6.0,62,0.00,BKN,,0.00,95.0,WeatherDisplay:10.37,2013-08-07 07:38:00,
2013-08-07 09:41:00,85.7,71.2,29.95,WNW,300,3.5,3.5,62,0.00,BKN,,0.00,97.0,WeatherDisplay:10.37,2013-08-07 07:41:00,
2013-08-07 09:42:00,85.5,71.5,29.95,WNW,299,3.5,3.5,63,0.00,BKN,,0.00,97.0,WeatherDisplay:10.37,2013-08-07 07:42:00,
2013-08-07 09:43:00,85.3,71.3,29.95,NW,305,5.8,5.8,63,0.00,BKN,,0.00,97.0,WeatherDisplay:10.37,2013-08-07 07:43:00,
2013-08-07 09:45:00,84.8,70.8,29.95,West,279,4.6,4.6,63,0.00,BKN,,0.00,97.0,WeatherDisplay:10.37,2013-08-07 07:45:00,
2013-08-07 09:46:00,84.7,70.7,29.95,West,279,0.0,0.0,63,0.00,BKN,,0.00,98.0,WeatherDisplay:10.37,2013-08-07 07:46:00,
2013-08-07 09:47:00,84.6,70.6,29.95,WNW,298,3.5,3.5,63,0.00,BKN,,0.00,98.0,WeatherDisplay:10.37,2013-08-07 07:47:00,
2013-08-07 09:50:00,84.6,71.1,29.95,West,277,1.2,0.0,64,0.00,BKN,,0.00,100.0,WeatherDisplay:10.37,2013-08-07 07:50:00,
2013-08-07 09:51:00,84.7,71.2,29.95,West,276,0.0,0.0,64,0.00,BKN,,0.00,151.0,WeatherDisplay:10.37,2013-08-07 07:51:00,
2013-08-07 09:52:00,84.7,70.7,29.95,West,263,1.2,1.2,63,0.00,BKN,,0.00,155.0,WeatherDisplay:10.37,2013-08-07 07:52:00,
2013-08-07 09:53:00,84.7,70.7,29.95,West,259,1.2,0.0,63,0.00,BKN,,0.00,148.0,WeatherDisplay:10.37,2013-08-07 07:53:00,
2013-08-07 09:55:00,84.9,70.9,29.95,ENE,69,0.0,0.0,63,0.00,SCT,,0.00,246.0,WeatherDisplay:10.37,2013-08-07 07:55:00,
2013-08-07 09:56:00,85.0,71.0,29.95,ENE,69,0.0,0.1,63,0.00,SCT,,0.00,246.0,WeatherDisplay:10.37,2013-08-07 07:56:00,
2013-08-07 09:57:00,85.2,71.2,29.95,ENE,69,1.2,0.0,63,0.00,SCT,,0.00,246.0,WeatherDisplay:10.37,2013-08-07 07:57:00,
2013-08-07 09:58:00,85.7,71.7,29.95,ENE,69,0.0,0.0,63,0.00,SCT,,0.00,246.0,WeatherDisplay:10.37,2013-08-07 07:58:00,
2013-08-07 10:00:00,86.5,71.9,29.95,West,277,0.0,0.0,62,0.00,FEW,,0.00,568.0,WeatherDisplay:10.37,2013-08-07 08:00:00,
2013-08-07 10:01:00,86.5,71.9,29.95,West,281,0.0,0.0,62,0.00,FEW,,0.00,568.0,WeatherDisplay:10.37,2013-08-07 08:01:00,
2013-08-07 10:02:00,86.2,72.1,29.95,West,273,0.0,0.0,63,0.00,FEW,,0.00,568.0,WeatherDisplay:10.37,2013-08-07 08:02:00,
2013-08-07 10:04:00,85.9,71.4,29.95,West,270,3.5,3.5,62,0.00,FEW,,0.00,519.0,WeatherDisplay:10.37,2013-08-07 08:04:00,
2013-08-07 10:06:00,85.8,72.2,29.95,SW,215,0.0,0.0,64,0.00,FEW,,0.00,577.0,WeatherDisplay:10.37,2013-08-07 08:06:00,
2013-08-07 10:08:00,85.8,72.2,29.95,SW,225,4.6,4.6,64,0.00,FEW,,0.00,582.0,WeatherDisplay:10.37,2013-08-07 08:08:00,
2013-08-07 10:09:00,85.8,72.7,29.95,WSW,247,4.6,4.6,65,0.00,FEW,,0.00,580.0,WeatherDisplay:10.37,2013-08-07 08:09:00,
2013-08-07 10:12:00,86.1,72.0,29.95,NW,304,1.2,1.2,63,0.00,FEW,,0.00,587.0,WeatherDisplay:10.37,2013-08-07 08:12:00,
2013-08-07 10:13:00,86.0,71.9,29.95,WSW,249,4.6,4.6,63,0.00,FEW,,0.00,592.0,WeatherDisplay:10.37,2013-08-07 08:13:00,
2013-08-07 10:15:00,86.1,72.0,29.95,WNW,289,4.0,4.0,63,0.00,FEW,,0.00,596.0,WeatherDisplay:10.37,2013-08-07 08:15:00,
2013-08-07 10:17:00,86.0,71.5,29.95,West,269,3.5,3.5,62,0.00,FEW,,0.00,599.0,WeatherDisplay:10.37,2013-08-07 08:17:00,
2013-08-07 10:18:00,85.8,71.3,29.95,SW,234,5.0,5.0,62,0.00,FEW,,0.00,599.0,WeatherDisplay:10.37,2013-08-07 08:18:00,
2013-08-07 10:20:00,85.7,71.2,29.95,West,263,6.9,6.9,62,0.00,FEW,,0.00,610.0,WeatherDisplay:10.37,2013-08-07 08:20:00,
2013-08-07 10:22:00,85.6,71.1,29.95,WSW,244,5.8,5.8,62,0.00,FEW,,0.00,606.0,WeatherDisplay:10.37,2013-08-07 08:22:00,
2013-08-07 10:23:00,85.6,71.1,29.95,SW,230,3.5,3.5,62,0.00,FEW,,0.00,606.0,WeatherDisplay:10.37,2013-08-07 08:23:00,
2013-08-07 10:24:00,86.2,72.1,29.95,SW,229,2.3,2.3,63,0.00,FEW,,0.00,612.0,WeatherDisplay:10.37,2013-08-07 08:24:00,
2013-08-07 10:25:00,86.2,72.1,29.95,SW,227,3.5,3.5,63,0.00,FEW,,0.00,612.0,WeatherDisplay:10.37,2013-08-07 08:25:00,
2013-08-07 10:27:00,86.3,71.3,29.95,West,271,1.2,1.2,61,0.00,FEW,,0.00,621.0,WeatherDisplay:10.37,2013-08-07 08:27:00,
2013-08-07 10:28:00,86.3,71.3,29.95,WSW,254,5.0,5.0,61,0.00,FEW,,0.00,621.0,WeatherDisplay:10.37,2013-08-07 08:28:00,
2013-08-07 10:29:00,86.3,71.3,29.95,West,267,3.0,3.5,61,0.00,FEW,,0.00,628.0,WeatherDisplay:10.37,2013-08-07 08:29:00,
2013-08-07 10:30:00,86.2,71.6,29.95,West,276,3.5,3.5,62,0.00,FEW,,0.00,636.0,WeatherDisplay:10.37,2013-08-07 08:30:00,
2013-08-07 10:32:00,86.4,71.4,29.95,West,266,5.8,0.0,61,0.00,FEW,,0.00,640.0,WeatherDisplay:10.37,2013-08-07 08:32:00,
2013-08-07 10:33:00,86.5,71.0,29.95,SW,235,7.0,7.0,60,0.00,FEW,,0.00,640.0,WeatherDisplay:10.37,2013-08-07 08:33:00,
2013-08-07 10:34:00,86.7,71.2,29.95,WSW,241,7.0,7.0,60,0.00,FEW,,0.00,643.0,WeatherDisplay:10.37,2013-08-07 08:34:00,
2013-08-07 10:35:00,86.6,71.1,29.95,WSW,258,6.9,6.9,60,0.00,FEW,,0.00,643.0,WeatherDisplay:10.37,2013-08-07 08:35:00,
2013-08-07 10:37:00,86.5,71.0,29.95,West,279,2.3,0.0,60,0.00,FEW,,0.00,649.0,WeatherDisplay:10.37,2013-08-07 08:37:00,
2013-08-07 10:38:00,86.7,71.2,29.95,West,279,3.5,3.5,60,0.00,FEW,,0.00,649.0,WeatherDisplay:10.37,2013-08-07 08:38:00,
2013-08-07 10:40:00,86.8,70.8,29.95,West,276,3.5,0.0,59,0.00,FEW,,0.00,649.0,WeatherDisplay:10.37,2013-08-07 08:40:00,
2013-08-07 10:42:00,87.0,70.9,29.95,WSW,250,6.0,6.0,59,0.00,FEW,,0.00,664.0,WeatherDisplay:10.37,2013-08-07 08:42:00,
2013-08-07 10:43:00,86.9,70.3,29.95,WSW,254,5.8,5.8,58,0.00,FEW,,0.00,661.0,WeatherDisplay:10.37,2013-08-07 08:43:00,
2013-08-07 10:45:00,86.8,70.8,29.95,West,267,5.0,5.0,59,0.00,FEW,,0.00,666.0,WeatherDisplay:10.37,2013-08-07 08:45:00,
2013-08-07 10:47:00,86.8,70.8,29.95,NW,304,4.6,0.0,59,0.00,FEW,,0.00,677.0,WeatherDisplay:10.37,2013-08-07 08:47:00,
2013-08-07 10:48:00,86.8,70.8,29.95,NW,304,0.0,0.0,59,0.00,FEW,,0.00,677.0,WeatherDisplay:10.37,2013-08-07 08:48:00,
2013-08-07 10:50:00,87.1,71.0,29.95,SW,231,3.0,3.0,59,0.00,FEW,,0.00,682.0,WeatherDisplay:10.37,2013-08-07 08:50:00,
2013-08-07 10:52:00,87.9,71.3,29.95,SW,225,5.8,0.0,58,0.00,FEW,,0.00,694.0,WeatherDisplay:10.37,2013-08-07 08:52:00,
2013-08-07 10:53:00,87.9,71.3,29.95,WSW,245,0.0,0.0,58,0.00,CLR,,0.00,694.0,WeatherDisplay:10.37,2013-08-07 08:53:00,
2013-08-07 10:54:00,88.0,71.4,29.95,SW,232,0.0,0.0,58,0.00,CLR,,0.00,696.0,WeatherDisplay:10.37,2013-08-07 08:54:00,
2013-08-07 10:56:00,88.3,70.6,29.95,West,259,8.1,8.1,56,0.00,CLR,,0.00,694.0,WeatherDisplay:10.37,2013-08-07 08:56:00,
2013-08-07 10:58:00,87.9,70.8,29.95,SW,232,5.8,5.8,57,0.00,CLR,,0.00,701.0,WeatherDisplay:10.37,2013-08-07 08:58:00,
2013-08-07 10:59:00,87.7,70.6,29.96,WSW,250,3.0,3.0,57,0.00,CLR,,0.00,703.0,WeatherDisplay:10.37,2013-08-07 08:59:00,
2013-08-07 11:01:00,87.5,70.4,29.95,SW,232,2.3,2.3,57,0.00,CLR,,0.00,708.0,WeatherDisplay:10.37,2013-08-07 09:01:00,
2013-08-07 11:03:00,87.8,70.7,29.95,WSW,241,8.1,8.1,57,0.00,CLR,,0.00,707.0,WeatherDisplay:10.37,2013-08-07 09:03:00,
2013-08-07 11:04:00,87.8,71.2,29.95,SW,219,8.1,8.1,58,0.00,CLR,,0.00,708.0,WeatherDisplay:10.37,2013-08-07 09:04:00,
2013-08-07 11:06:00,88.2,70.0,29.95,WSW,243,9.2,9.2,55,0.00,CLR,,0.00,708.0,WeatherDisplay:10.37,2013-08-07 09:06:00,
2013-08-07 11:07:00,88.3,70.6,29.95,West,270,6.9,6.9,56,0.00,CLR,,0.00,708.0,WeatherDisplay:10.37,2013-08-07 09:07:00,
2013-08-07 11:08:00,88.2,71.0,29.95,WSW,239,6.9,6.9,57,0.00,CLR,,0.00,726.0,WeatherDisplay:10.37,2013-08-07 09:08:00,
2013-08-07 11:09:00,88.2,70.5,29.95,SW,232,6.9,6.9,56,0.00,CLR,,0.00,726.0,WeatherDisplay:10.37,2013-08-07 09:09:00,
2013-08-07 11:10:00,88.1,70.4,29.95,SW,232,5.8,5.8,56,0.00,CLR,,0.00,722.0,WeatherDisplay:10.37,2013-08-07 09:10:00,
2013-08-07 11:11:00,88.0,69.8,29.95,South,182,4.6,0.0,55,0.00,CLR,,0.00,722.0,WeatherDisplay:10.37,2013-08-07 09:11:00,
2013-08-07 11:12:00,88.0,70.3,29.95,South,180,0.0,0.0,56,0.00,CLR,,0.00,726.0,WeatherDisplay:10.37,2013-08-07 09:12:00,
2013-08-07 11:13:00,88.4,70.7,29.95,SSW,213,2.0,2.0,56,0.00,FEW,,0.00,726.0,WeatherDisplay:10.37,2013-08-07 09:13:00,
2013-08-07 11:14:00,88.5,70.8,29.95,SSW,211,1.2,1.2,56,0.00,FEW,,0.00,726.0,WeatherDisplay:10.37,2013-08-07 09:14:00,
2013-08-07 11:15:00,88.7,71.0,29.95,WNW,294,6.9,6.9,56,0.00,FEW,,0.00,729.0,WeatherDisplay:10.37,2013-08-07 09:15:00,
2013-08-07 11:17:00,88.7,70.5,29.95,West,267,8.1,8.1,55,0.00,CLR,,0.00,749.0,WeatherDisplay:10.37,2013-08-07 09:17:00,
2013-08-07 11:18:00,88.5,70.8,29.95,SW,228,5.8,5.8,56,0.00,CLR,,0.00,749.0,WeatherDisplay:10.37,2013-08-07 09:18:00,
2013-08-07 11:19:00,88.4,70.2,29.95,West,265,5.8,5.8,55,0.00,CLR,,0.00,737.0,WeatherDisplay:10.37,2013-08-07 09:19:00,
2013-08-07 11:20:00,88.5,70.3,29.95,WSW,252,8.0,8.0,55,0.00,CLR,,0.00,737.0,WeatherDisplay:10.37,2013-08-07 09:20:00,
2013-08-07 11:23:00,88.6,69.8,29.95,West,270,4.6,4.6,54,0.00,CLR,,0.00,733.0,WeatherDisplay:10.37,2013-08-07 09:23:00,
2013-08-07 11:24:00,88.6,69.8,29.95,WSW,257,6.0,6.0,54,0.00,CLR,,0.00,740.0,WeatherDisplay:10.37,2013-08-07 09:24:00,
2013-08-07 11:25:00,88.8,70.0,29.95,WNW,298,6.9,6.9,54,0.00,CLR,,0.00,744.0,WeatherDisplay:10.37,2013-08-07 09:25:00,
2013-08-07 11:27:00,88.8,69.5,29.95,West,270,6.9,6.9,53,0.00,FEW,,0.00,747.0,WeatherDisplay:10.37,2013-08-07 09:27:00,
2013-08-07 11:28:00,88.9,69.6,29.96,West,276,6.9,6.9,53,0.00,FEW,,0.00,751.0,WeatherDisplay:10.37,2013-08-07 09:28:00,
2013-08-07 11:30:00,88.6,69.3,29.95,West,275,0.0,0.0,53,0.00,FEW,,0.00,751.0,WeatherDisplay:10.37,2013-08-07 09:30:00,
2013-08-07 11:31:00,88.7,69.4,29.95,SW,225,0.0,0.0,53,0.00,FEW,,0.00,751.0,WeatherDisplay:10.37,2013-08-07 09:31:00,
2013-08-07 11:32:00,89.0,69.6,29.95,South,188,4.0,4.0,53,0.00,FEW,,0.00,752.0,WeatherDisplay:10.37,2013-08-07 09:32:00,
2013-08-07 11:33:00,89.4,70.0,29.95,SW,225,5.0,5.0,53,0.00,FEW,,0.00,752.0,WeatherDisplay:10.37,2013-08-07 09:33:00,
2013-08-07 11:34:00,89.7,70.3,29.95,WNW,284,4.6,4.6,53,0.00,FEW,,0.00,759.0,WeatherDisplay:10.37,2013-08-07 09:34:00,
2013-08-07 11:36:00,89.6,69.6,29.95,WSW,252,3.5,3.5,52,0.00,CLR,,0.00,763.0,WeatherDisplay:10.37,2013-08-07 09:36:00,
2013-08-07 11:38:00,90.2,69.6,29.95,SW,216,6.9,6.9,51,0.00,CLR,,0.00,766.0,WeatherDisplay:10.37,2013-08-07 09:38:00,
2013-08-07 11:39:00,90.2,70.2,29.95,WSW,246,6.9,6.9,52,0.00,CLR,,0.00,766.0,WeatherDisplay:10.37,2013-08-07 09:39:00,
2013-08-07 11:41:00,89.8,69.3,29.95,WNW,301,5.8,5.8,51,0.00,CLR,,0.00,768.0,WeatherDisplay:10.37,2013-08-07 09:41:00,
2013-08-07 11:43:00,89.5,69.0,29.95,WNW,287,3.5,3.5,51,0.00,CLR,,0.00,768.0,WeatherDisplay:10.37,2013-08-07 09:43:00,
2013-08-07 11:44:00,89.7,69.2,29.95,WSW,246,7.0,7.0,51,0.00,CLR,,0.00,770.0,WeatherDisplay:10.37,2013-08-07 09:44:00,
2013-08-07 11:46:00,90.2,69.0,29.95,SW,217,6.9,6.9,50,0.00,CLR,,0.00,770.0,WeatherDisplay:10.37,2013-08-07 09:46:00,
2013-08-07 11:47:00,90.3,69.1,29.95,SW,236,4.6,4.6,50,0.00,CLR,,0.00,770.0,WeatherDisplay:10.37,2013-08-07 09:47:00,
2013-08-07 11:48:00,90.7,69.5,29.95,SSW,194,2.3,2.3,50,0.00,CLR,,0.00,772.0,WeatherDisplay:10.37,2013-08-07 09:48:00,
2013-08-07 11:49:00,90.7,69.5,29.95,South,174,2.3,2.3,50,0.00,CLR,,0.00,772.0,WeatherDisplay:10.37,2013-08-07 09:49:00,
2013-08-07 11:52:00,91.0,69.8,29.95,SSW,213,9.2,9.2,50,0.00,FEW,,0.00,777.0,WeatherDisplay:10.37,2013-08-07 09:52:00,
2013-08-07 11:53:00,91.0,69.2,29.95,SW,230,7.0,7.0,49,0.00,FEW,,0.00,777.0,WeatherDisplay:10.37,2013-08-07 09:53:00,
2013-08-07 11:54:00,90.9,69.1,29.95,West,273,6.9,6.9,49,0.00,FEW,,0.00,779.0,WeatherDisplay:10.37,2013-08-07 09:54:00,
2013-08-07 11:57:00,91.3,68.9,29.95,South,190,5.0,5.0,48,0.00,FEW,,0.00,788.0,WeatherDisplay:10.37,2013-08-07 09:57:00,
2013-08-07 11:58:00,91.3,68.9,29.95,SW,225,5.8,5.8,48,0.00,FEW,,0.00,788.0,WeatherDisplay:10.37,2013-08-07 09:58:00,
2013-08-07 11:59:00,91.4,69.6,29.95,SW,234,5.0,5.0,49,0.00,FEW,,0.00,788.0,WeatherDisplay:10.37,2013-08-07 09:59:00,
2013-08-07 12:00:00,91.3,69.5,29.95,West,265,5.8,5.8,49,0.00,FEW,,0.00,788.0,WeatherDisplay:10.37,2013-08-07 10:00:00,
2013-08-07 12:03:00,90.9,69.7,29.95,WSW,252,1.2,0.0,50,0.00,FEW,,0.00,786.0,WeatherDisplay:10.37,2013-08-07 10:03:00,
2013-08-07 12:04:00,91.0,69.8,29.95,WSW,243,5.0,5.0,50,0.00,FEW,,0.00,786.0,WeatherDisplay:10.37,2013-08-07 10:04:00,
2013-08-07 12:05:00,91.1,70.5,29.95,SW,228,4.6,4.6,51,0.00,FEW,,0.00,786.0,WeatherDisplay:10.37,2013-08-07 10:05:00,
2013-08-07 12:08:00,91.5,71.4,29.95,West,266,6.0,6.0,52,0.00,FEW,,0.00,789.0,WeatherDisplay:10.37,2013-08-07 10:08:00,
2013-08-07 12:09:00,91.9,71.8,29.95,WSW,243,5.8,5.8,52,0.00,FEW,,0.00,789.0,WeatherDisplay:10.37,2013-08-07 10:09:00,
2013-08-07 12:10:00,92.1,71.9,29.95,SSW,207,7.0,7.0,52,0.00,FEW,,0.00,789.0,WeatherDisplay:10.37,2013-08-07 10:10:00,
2013-08-07 12:13:00,92.1,71.9,29.95,South,190,5.0,5.0,52,0.00,FEW,,0.00,789.0,WeatherDisplay:10.37,2013-08-07 10:13:00,
2013-08-07 12:14:00,92.0,71.9,29.95,SSE,161,4.6,4.6,52,0.00,FEW,,0.00,788.0,WeatherDisplay:10.37,2013-08-07 10:14:00,
2013-08-07 12:15:00,91.9,71.8,29.94,SSW,200,1.2,1.3,52,0.00,FEW,,0.00,791.0,WeatherDisplay:10.37,2013-08-07 10:15:00,
2013-08-07 12:16:00,91.8,71.1,29.94,South,175,4.6,4.6,51,0.00,FEW,,0.00,791.0,WeatherDisplay:10.37,2013-08-07 10:16:00,
2013-08-07 12:18:00,91.4,71.9,29.95,South,169,4.6,4.6,53,0.00,FEW,,0.00,795.0,WeatherDisplay:10.37,2013-08-07 10:18:00,
2013-08-07 12:19:00,91.4,71.9,29.95,South,169,3.5,3.5,53,0.00,FEW,,0.00,795.0,WeatherDisplay:10.37,2013-08-07 10:19:00,
2013-08-07 12:20:00,91.4,71.9,29.94,SSE,165,3.5,0.0,53,0.00,FEW,,0.00,796.0,WeatherDisplay:10.37,2013-08-07 10:20:00,
2013-08-07 12:21:00,91.8,72.2,29.95,SW,229,4.6,4.6,53,0.00,FEW,,0.00,796.0,WeatherDisplay:10.37,2013-08-07 10:21:00,
2013-08-07 12:24:00,92.1,72.5,29.95,West,261,5.8,5.8,53,0.00,FEW,,0.00,798.0,WeatherDisplay:10.37,2013-08-07 10:24:00,
2013-08-07 12:25:00,92.3,72.7,29.95,West,266,6.9,6.9,53,0.00,FEW,,0.00,796.0,WeatherDisplay:10.37,2013-08-07 10:25:00,
2013-08-07 12:26:00,92.2,72.0,29.94,WNW,288,6.9,6.9,52,0.00,FEW,,0.00,796.0,WeatherDisplay:10.37,2013-08-07 10:26:00,
2013-08-07 12:29:00,92.2,71.5,29.95,SW,229,11.5,11.5,51,0.00,FEW,,0.00,802.0,WeatherDisplay:10.37,2013-08-07 10:29:00,
2013-08-07 12:30:00,91.9,71.2,29.95,West,281,7.0,7.0,51,0.00,FEW,,0.00,800.0,WeatherDisplay:10.37,2013-08-07 10:30:00,
2013-08-07 12:31:00,91.9,71.2,29.95,NW,313,6.0,6.0,51,0.00,FEW,,0.00,800.0,WeatherDisplay:10.37,2013-08-07 10:31:00,
2013-08-07 12:32:00,91.8,71.1,29.95,NW,323,8.1,8.1,51,0.00,FEW,,0.00,803.0,WeatherDisplay:10.37,2013-08-07 10:32:00,
2013-08-07 12:35:00,91.6,70.9,29.95,West,266,8.1,8.1,51,0.00,FEW,,0.00,800.0,WeatherDisplay:10.37,2013-08-07 10:35:00,
2013-08-07 12:36:00,91.4,70.7,29.94,WNW,293,7.0,7.0,51,0.00,FEW,,0.00,803.0,WeatherDisplay:10.37,2013-08-07 10:36:00,
2013-08-07 12:37:00,91.7,72.1,29.95,WSW,244,8.1,8.1,53,0.00,FEW,,0.00,803.0,WeatherDisplay:10.37,2013-08-07 10:37:00,
2013-08-07 12:40:00,92.6,71.2,29.95,West,279,9.2,9.2,50,0.00,FEW,,0.00,802.0,WeatherDisplay:10.37,2013-08-07 10:40:00,
2013-08-07 12:41:00,92.5,70.6,29.95,West,281,8.1,8.1,49,0.00,FEW,,0.00,809.0,WeatherDisplay:10.37,2013-08-07 10:41:00,
2013-08-07 12:42:00,92.3,70.4,29.95,WNW,291,9.2,9.2,49,0.00,FEW,,0.00,809.0,WeatherDisplay:10.37,2013-08-07 10:42:00,
2013-08-07 12:43:00,92.1,71.4,29.95,WNW,286,11.5,11.5,51,0.00,FEW,,0.00,810.0,WeatherDisplay:10.37,2013-08-07 10:43:00,
2013-08-07 12:45:00,92.1,71.9,29.95,NW,322,8.1,8.1,52,0.00,FEW,,0.00,812.0,WeatherDisplay:10.37,2013-08-07 10:45:00,
2013-08-07 12:46:00,91.9,71.2,29.95,NW,326,8.1,8.1,51,0.00,FEW,,0.00,810.0,WeatherDisplay:10.37,2013-08-07 10:46:00,
2013-08-07 12:47:00,91.8,71.7,29.94,NW,311,6.0,6.0,52,0.00,FEW,,0.00,795.0,WeatherDisplay:10.37,2013-08-07 10:47:00,
2013-08-07 12:48:00,91.7,71.6,29.95,NNE,15,5.8,5.8,52,0.00,FEW,,0.00,795.0,WeatherDisplay:10.37,2013-08-07 10:48:00,
2013-08-07 12:50:00,92.2,72.0,29.95,WNW,295,4.6,4.6,52,0.00,FEW,,0.00,803.0,WeatherDisplay:10.37,2013-08-07 10:50:00,
2013-08-07 12:51:00,92.3,72.1,29.94,WNW,298,6.0,6.0,52,0.00,FEW,,0.00,803.0,WeatherDisplay:10.37,2013-08-07 10:51:00,
2013-08-07 12:52:00,92.4,71.6,29.95,WNW,296,8.1,8.1,51,0.00,FEW,,0.00,803.0,WeatherDisplay:10.37,2013-08-07 10:52:00,
2013-08-07 12:53:00,92.3,71.6,29.94,North,349,6.9,6.9,51,0.00,FEW,,0.00,803.0,WeatherDisplay:10.37,2013-08-07 10:53:00,
2013-08-07 12:56:00,92.3,72.7,29.94,WNW,300,5.8,5.8,53,0.00,FEW,,0.00,800.0,WeatherDisplay:10.37,2013-08-07 10:56:00,
2013-08-07 12:57:00,92.4,72.8,29.95,WNW,283,11.5,11.5,53,0.00,FEW,,0.00,802.0,WeatherDisplay:10.37,2013-08-07 10:57:00,
2013-08-07 12:58:00,92.4,72.2,29.94,NW,309,10.0,10.0,52,0.00,FEW,,0.00,803.0,WeatherDisplay:10.37,2013-08-07 10:58:00,
2013-08-07 13:01:00,92.0,71.9,29.94,WNW,291,11.5,11.5,52,0.00,FEW,,0.00,795.0,WeatherDisplay:10.37,2013-08-07 11:01:00,
2013-08-07 13:02:00,91.8,72.2,29.94,NW,326,11.0,11.0,53,0.00,FEW,,0.00,803.0,WeatherDisplay:10.37,2013-08-07 11:02:00,
2013-08-07 13:03:00,91.7,72.1,29.94,NNW,340,11.5,11.5,53,0.00,FEW,,0.00,803.0,WeatherDisplay:10.37,2013-08-07 11:03:00,
2013-08-07 13:05:00,91.8,72.2,29.94,NW,319,6.0,6.0,53,0.00,FEW,,0.00,795.0,WeatherDisplay:10.37,2013-08-07 11:05:00,
2013-08-07 13:06:00,92.1,73.1,29.94,WNW,297,8.1,8.1,54,0.00,FEW,,0.00,795.0,WeatherDisplay:10.37,2013-08-07 11:06:00,
2013-08-07 13:07:00,92.2,72.6,29.94,WSW,249,8.1,8.1,53,0.00,FEW,,0.00,796.0,WeatherDisplay:10.37,2013-08-07 11:07:00,
2013-08-07 13:08:00,92.6,73.0,29.94,West,273,9.0,9.0,53,0.00,FEW,,0.00,796.0,WeatherDisplay:10.37,2013-08-07 11:08:00,
2013-08-07 13:10:00,92.8,72.6,29.94,WNW,292,10.4,10.4,52,0.00,FEW,,0.00,809.0,WeatherDisplay:10.37,2013-08-07 11:10:00,
2013-08-07 13:11:00,92.8,72.6,29.94,NW,305,8.1,8.1,52,0.00,FEW,,0.00,810.0,WeatherDisplay:10.37,2013-08-07 11:11:00,
2013-08-07 13:12:00,92.8,72.6,29.94,WNW,302,8.1,8.1,52,0.00,FEW,,0.00,807.0,WeatherDisplay:10.37,2013-08-07 11:12:00,
2013-08-07 13:13:00,92.8,72.6,29.94,WNW,300,8.1,8.1,52,0.00,FEW,,0.00,807.0,WeatherDisplay:10.37,2013-08-07 11:13:00,
2013-08-07 13:14:00,92.7,71.9,29.94,NNW,329,8.1,8.1,51,0.00,FEW,,0.00,807.0,WeatherDisplay:10.37,2013-08-07 11:14:00,
2013-08-07 13:15:00,92.5,72.3,29.94,WNW,294,6.9,7.3,52,0.00,FEW,,0.00,789.0,WeatherDisplay:10.37,2013-08-07 11:15:00,
2013-08-07 13:16:00,92.4,72.2,29.94,WNW,301,10.4,10.4,52,0.00,FEW,,0.00,793.0,WeatherDisplay:10.37,2013-08-07 11:16:00,
2013-08-07 13:17:00,92.4,72.8,29.94,NW,304,8.1,8.1,53,0.00,FEW,,0.00,793.0,WeatherDisplay:10.37,2013-08-07 11:17:00,
2013-08-07 13:18:00,92.4,72.8,29.94,WNW,287,8.1,8.1,53,0.00,FEW,,0.00,791.0,WeatherDisplay:10.37,2013-08-07 11:18:00,
2013-08-07 13:19:00,92.3,72.7,29.94,WNW,290,6.9,6.9,53,0.00,FEW,,0.00,791.0,WeatherDisplay:10.37,2013-08-07 11:19:00,
2013-08-07 13:21:00,92.5,73.4,29.94,SSW,200,6.0,6.0,54,0.00,FEW,,0.00,789.0,WeatherDisplay:10.37,2013-08-07 11:21:00,
2013-08-07 13:23:00,93.1,73.4,29.94,West,261,10.4,10.4,53,0.00,FEW,,0.00,788.0,WeatherDisplay:10.37,2013-08-07 11:23:00,
2013-08-07 13:24:00,93.2,73.0,29.94,WNW,291,10.4,10.4,52,0.00,FEW,,0.00,788.0,WeatherDisplay:10.37,2013-08-07 11:24:00,
2013-08-07 13:26:00,93.6,73.3,29.94,WNW,301,5.8,5.8,52,0.00,FEW,,0.00,784.0,WeatherDisplay:10.37,2013-08-07 11:26:00,
2013-08-07 13:27:00,93.6,72.7,29.94,WNW,289,2.3,2.3,51,0.00,FEW,,0.00,784.0,WeatherDisplay:10.37,2013-08-07 11:27:00,
2013-08-07 13:28:00,94.1,73.2,29.94,NW,306,10.0,10.0,51,0.00,FEW,,0.00,798.0,WeatherDisplay:10.37,2013-08-07 11:28:00,
2013-08-07 13:29:00,94.1,73.2,29.94,WNW,299,11.5,11.5,51,0.00,FEW,,0.00,795.0,WeatherDisplay:10.37,2013-08-07 11:29:00,
2013-08-07 13:32:00,93.2,72.4,29.94,WSW,253,9.0,9.0,51,0.00,FEW,,0.00,796.0,WeatherDisplay:10.37,2013-08-07 11:32:00,
2013-08-07 13:33:00,93.3,73.0,29.94,SW,229,11.5,11.5,52,0.00,FEW,,0.00,791.0,WeatherDisplay:10.37,2013-08-07 11:33:00,
2013-08-07 13:34:00,93.4,75.4,29.94,West,275,10.0,10.0,56,0.00,FEW,,0.00,791.0,WeatherDisplay:10.37,2013-08-07 11:34:00,
2013-08-07 13:37:00,93.4,76.4,29.94,West,279,11.5,11.5,58,0.00,FEW,,0.00,780.0,WeatherDisplay:10.37,2013-08-07 11:37:00,
2013-08-07 13:38:00,93.5,77.0,29.94,SSW,204,11.0,11.0,59,0.00,FEW,,0.00,795.0,WeatherDisplay:10.37,2013-08-07 11:38:00,
2013-08-07 13:40:00,93.6,76.1,29.94,West,259,12.7,12.7,57,0.00,FEW,,0.00,795.0,WeatherDisplay:10.37,2013-08-07 11:40:00,
2013-08-07 13:42:00,93.4,75.9,29.94,SW,221,8.1,8.1,57,0.00,FEW,,0.00,784.0,WeatherDisplay:10.37,2013-08-07 11:42:00,
2013-08-07 13:43:00,93.8,76.8,29.94,SW,223,15.0,15.0,58,0.00,FEW,,0.00,784.0,WeatherDisplay:10.37,2013-08-07 11:43:00,
2013-08-07 13:45:00,93.3,76.3,29.94,SSW,204,12.7,12.7,58,0.00,FEW,,0.00,775.0,WeatherDisplay:10.37,2013-08-07 11:45:00,
2013-08-07 13:47:00,93.0,76.6,29.94,SW,230,8.1,8.1,59,0.00,FEW,,0.00,775.0,WeatherDisplay:10.37,2013-08-07 11:47:00,
2013-08-07 13:48:00,93.2,76.2,29.94,SW,228,11.5,11.5,58,0.00,FEW,,0.00,788.0,WeatherDisplay:10.37,2013-08-07 11:48:00,
2013-08-07 13:50:00,93.0,75.0,29.94,WSW,254,12.7,12.7,56,0.00,FEW,,0.00,786.0,WeatherDisplay:10.37,2013-08-07 11:50:00,
2013-08-07 13:52:00,92.7,75.2,29.94,WNW,283,15.0,15.0,57,0.00,FEW,,0.00,770.0,WeatherDisplay:10.37,2013-08-07 11:52:00,
2013-08-07 13:53:00,92.6,76.2,29.94,West,269,12.0,12.0,59,0.00,FEW,,0.00,795.0,WeatherDisplay:10.37,2013-08-07 11:53:00,
2013-08-07 13:54:00,92.5,76.1,29.94,WSW,254,17.3,17.3,59,0.00,FEW,,0.00,795.0,WeatherDisplay:10.37,2013-08-07 11:54:00,
2013-08-07 13:55:00,92.2,75.8,29.94,West,262,15.0,15.0,59,0.00,FEW,,0.00,784.0,WeatherDisplay:10.37,2013-08-07 11:55:00,
2013-08-07 13:56:00,92.1,75.7,29.94,SW,229,15.0,15.0,59,0.00,FEW,,0.00,784.0,WeatherDisplay:10.37,2013-08-07 11:56:00,
2013-08-07 13:57:00,92.2,75.8,29.94,WSW,245,11.5,11.5,59,0.00,FEW,,0.00,784.0,WeatherDisplay:10.37,2013-08-07 11:57:00,
2013-08-07 13:58:00,92.2,75.3,29.94,SW,217,12.7,12.7,58,0.00,FEW,,0.00,780.0,WeatherDisplay:10.37,2013-08-07 11:58:00,
2013-08-07 13:59:00,92.3,75.4,29.94,SW,227,11.5,11.5,58,0.00,FEW,,0.00,782.0,WeatherDisplay:10.37,2013-08-07 11:59:00,
2013-08-07 14:00:00,92.6,75.7,29.94,SW,223,11.5,11.5,58,0.00,FEW,,0.00,789.0,WeatherDisplay:10.37,2013-08-07 12:00:00,
2013-08-07 14:02:00,92.8,75.8,29.94,SSW,198,10.4,10.4,58,0.00,FEW,,0.00,788.0,WeatherDisplay:10.37,2013-08-07 12:02:00,
2013-08-07 14:03:00,92.9,75.9,29.93,WSW,241,5.8,5.8,58,0.00,FEW,,0.00,786.0,WeatherDisplay:10.37,2013-08-07 12:03:00,
2013-08-07 14:04:00,93.4,75.9,29.94,WSW,238,9.2,9.2,57,0.00,FEW,,0.00,773.0,WeatherDisplay:10.37,2013-08-07 12:04:00,
2013-08-07 14:05:00,93.5,76.0,29.94,West,275,10.4,10.4,57,0.00,FEW,,0.00,779.0,WeatherDisplay:10.37,2013-08-07 12:05:00,
2013-08-07 14:07:00,93.3,76.3,29.94,West,280,11.5,11.5,58,0.00,FEW,,0.00,775.0,WeatherDisplay:10.37,2013-08-07 12:07:00,
2013-08-07 14:08:00,93.1,76.1,29.94,West,279,10.4,10.4,58,0.00,FEW,,0.00,777.0,WeatherDisplay:10.37,2013-08-07 12:08:00,
2013-08-07 14:09:00,93.0,76.0,29.94,West,277,9.0,9.0,58,0.00,FEW,,0.00,786.0,WeatherDisplay:10.37,2013-08-07 12:09:00,
2013-08-07 14:10:00,93.1,76.1,29.94,SW,220,11.5,11.5,58,0.00,FEW,,0.00,777.0,WeatherDisplay:10.37,2013-08-07 12:10:00,
2013-08-07 14:12:00,93.0,75.5,29.94,SW,232,17.3,17.3,57,0.00,FEW,,0.00,777.0,WeatherDisplay:10.37,2013-08-07 12:12:00,
2013-08-07 14:14:00,92.8,75.8,29.94,WSW,250,11.0,11.0,58,0.00,FEW,,0.00,773.0,WeatherDisplay:10.37,2013-08-07 12:14:00,
2013-08-07 14:15:00,92.9,75.4,29.94,SW,236,12.7,12.7,57,0.00,FEW,,0.00,770.0,WeatherDisplay:10.37,2013-08-07 12:15:00,
2013-08-07 14:17:00,93.3,75.8,29.94,South,188,10.4,10.4,57,0.00,FEW,,0.00,768.0,WeatherDisplay:10.37,2013-08-07 12:17:00,
2013-08-07 14:19:00,93.5,76.0,29.94,WSW,249,11.5,11.5,57,0.00,FEW,,0.00,761.0,WeatherDisplay:10.37,2013-08-07 12:19:00,
2013-08-07 14:20:00,93.5,76.0,29.94,WSW,250,10.4,10.4,57,0.00,FEW,,0.00,761.0,WeatherDisplay:10.37,2013-08-07 12:20:00,
2013-08-07 14:21:00,93.6,75.0,29.94,WSW,248,10.4,10.4,55,0.00,FEW,,0.00,770.0,WeatherDisplay:10.37,2013-08-07 12:21:00,
2013-08-07 14:22:00,94.2,75.6,29.94,West,261,12.0,12.0,55,0.00,FEW,,0.00,770.0,WeatherDisplay:10.37,2013-08-07 12:22:00,
2013-08-07 14:24:00,93.7,74.5,29.94,SW,236,13.8,13.8,54,0.00,FEW,,0.00,761.0,WeatherDisplay:10.37,2013-08-07 12:24:00,
2013-08-07 14:25:00,93.5,74.9,29.94,WSW,244,15.0,15.0,55,0.00,FEW,,0.00,759.0,WeatherDisplay:10.37,2013-08-07 12:25:00,
2013-08-07 14:26:00,93.2,74.6,29.94,WSW,240,11.5,11.5,55,0.00,FEW,,0.00,759.0,WeatherDisplay:10.37,2013-08-07 12:26:00,
2013-08-07 14:28:00,93.3,74.7,29.94,SW,234,11.5,11.5,55,0.00,FEW,,0.00,761.0,WeatherDisplay:10.37,2013-08-07 12:28:00,
2013-08-07 14:29:00,93.5,74.9,29.94,SW,228,10.4,10.4,55,0.00,FEW,,0.00,747.0,WeatherDisplay:10.37,2013-08-07 12:29:00,
2013-08-07 14:30:00,93.5,74.9,29.94,SW,235,10.4,10.4,55,0.00,FEW,,0.00,737.0,WeatherDisplay:10.37,2013-08-07 12:30:00,
2013-08-07 14:31:00,93.4,74.8,29.94,WNW,294,6.0,6.0,55,0.00,FEW,,0.00,737.0,WeatherDisplay:10.37,2013-08-07 12:31:00,
2013-08-07 14:33:00,93.7,75.6,29.94,WSW,245,11.5,11.5,56,0.00,FEW,,0.00,740.0,WeatherDisplay:10.37,2013-08-07 12:33:00,
2013-08-07 14:35:00,93.7,75.1,29.94,WSW,257,11.5,11.5,55,0.00,FEW,,0.00,747.0,WeatherDisplay:10.37,2013-08-07 12:35:00,
2013-08-07 14:36:00,93.8,75.2,29.94,WSW,244,10.4,10.4,55,0.00,FEW,,0.00,751.0,WeatherDisplay:10.37,2013-08-07 12:36:00,
2013-08-07 14:38:00,93.6,75.0,29.94,West,265,9.0,9.0,55,0.00,FEW,,0.00,745.0,WeatherDisplay:10.37,2013-08-07 12:38:00,
2013-08-07 14:40:00,93.6,75.0,29.94,West,277,11.5,11.5,55,0.00,FEW,,0.00,744.0,WeatherDisplay:10.37,2013-08-07 12:40:00,
2013-08-07 14:41:00,93.6,75.0,29.94,West,281,9.2,9.2,55,0.00,FEW,,0.00,744.0,WeatherDisplay:10.37,2013-08-07 12:41:00,
2013-08-07 14:42:00,93.3,74.7,29.94,WNW,289,8.1,8.1,55,0.00,FEW,,0.00,751.0,WeatherDisplay:10.37,2013-08-07 12:42:00,
2013-08-07 14:43:00,93.1,74.5,29.94,West,269,9.2,9.2,55,0.00,FEW,,0.00,740.0,WeatherDisplay:10.37,2013-08-07 12:43:00,
2013-08-07 14:46:00,93.2,74.1,29.94,WNW,286,6.9,6.9,54,0.00,FEW,,0.00,733.0,WeatherDisplay:10.37,2013-08-07 12:46:00,
2013-08-07 14:47:00,93.0,74.4,29.94,West,260,9.0,9.0,55,0.00,FEW,,0.00,733.0,WeatherDisplay:10.37,2013-08-07 12:47:00,
2013-08-07 14:49:00,93.1,75.1,29.93,West,268,11.5,11.5,56,0.00,FEW,,0.00,726.0,WeatherDisplay:10.37,2013-08-07 12:49:00,
2013-08-07 14:51:00,93.1,74.5,29.94,West,271,13.8,13.8,55,0.00,FEW,,0.00,733.0,WeatherDisplay:10.37,2013-08-07 12:51:00,
2013-08-07 14:52:00,93.0,73.9,29.94,WNW,282,10.4,10.4,54,0.00,FEW,,0.00,724.0,WeatherDisplay:10.37,2013-08-07 12:52:00,
2013-08-07 14:53:00,93.0,73.9,29.94,NW,313,9.2,9.2,54,0.00,FEW,,0.00,722.0,WeatherDisplay:10.37,2013-08-07 12:53:00,
2013-08-07 14:54:00,93.1,74.5,29.93,SW,221,10.0,10.0,55,0.00,FEW,,0.00,721.0,WeatherDisplay:10.37,2013-08-07 12:54:00,
2013-08-07 14:56:00,93.4,75.4,29.94,SW,235,12.0,12.0,56,0.00,FEW,,0.00,724.0,WeatherDisplay:10.37,2013-08-07 12:56:00,
2013-08-07 14:57:00,93.2,75.2,29.93,WNW,293,15.0,15.0,56,0.00,FEW,,0.00,719.0,WeatherDisplay:10.37,2013-08-07 12:57:00,
2013-08-07 14:58:00,93.1,75.1,29.93,West,267,11.5,11.5,56,0.00,FEW,,0.00,719.0,WeatherDisplay:10.37,2013-08-07 12:58:00,
2013-08-07 15:00:00,93.0,75.0,29.93,WNW,288,11.5,11.5,56,0.00,FEW,,0.00,715.0,WeatherDisplay:10.37,2013-08-07 13:00:00,
2013-08-07 15:01:00,93.0,75.0,29.93,WSW,258,8.0,8.0,56,0.00,FEW,,0.00,715.0,WeatherDisplay:10.37,2013-08-07 13:01:00,
2013-08-07 15:02:00,93.2,74.6,29.93,West,259,9.2,9.2,55,0.00,FEW,,0.00,715.0,WeatherDisplay:10.37,2013-08-07 13:02:00,
2013-08-07 15:03:00,93.3,74.2,29.93,West,273,12.0,12.0,54,0.00,FEW,,0.00,715.0,WeatherDisplay:10.37,2013-08-07 13:03:00,
2013-08-07 15:05:00,93.3,74.2,29.93,WSW,254,11.5,11.5,54,0.00,FEW,,0.00,705.0,WeatherDisplay:10.37,2013-08-07 13:05:00,
2013-08-07 15:06:00,93.7,73.4,29.93,West,265,8.1,8.1,52,0.00,FEW,,0.00,705.0,WeatherDisplay:10.37,2013-08-07 13:06:00,
2013-08-07 15:08:00,93.8,73.5,29.93,WSW,240,6.0,6.0,52,0.00,FEW,,0.00,705.0,WeatherDisplay:10.37,2013-08-07 13:08:00,
2013-08-07 15:09:00,93.8,73.5,29.93,WSW,256,9.0,9.0,52,0.00,FEW,,0.00,700.0,WeatherDisplay:10.37,2013-08-07 13:09:00,
2013-08-07 15:10:00,93.6,73.3,29.93,WSW,246,9.2,9.2,52,0.00,FEW,,0.00,696.0,WeatherDisplay:10.37,2013-08-07 13:10:00,
2013-08-07 15:12:00,93.5,73.8,29.93,West,263,10.0,10.0,53,0.00,FEW,,0.00,698.0,WeatherDisplay:10.37,2013-08-07 13:12:00,
2013-08-07 15:13:00,93.6,73.9,29.93,West,275,11.5,11.5,53,0.00,CLR,,0.00,698.0,WeatherDisplay:10.37,2013-08-07 13:13:00,
2013-08-07 15:14:00,93.9,74.2,29.93,WNW,284,9.2,9.2,53,0.00,CLR,,0.00,691.0,WeatherDisplay:10.37,2013-08-07 13:14:00,
2013-08-07 15:15:00,94.0,73.1,29.93,West,278,9.2,9.2,51,0.00,CLR,,0.00,691.0,WeatherDisplay:10.37,2013-08-07 13:15:00,
2013-08-07 15:17:00,94.1,73.2,29.93,West,265,11.5,11.5,51,0.00,CLR,,0.00,687.0,WeatherDisplay:10.37,2013-08-07 13:17:00,
2013-08-07 15:19:00,93.9,73.6,29.93,West,269,10.4,10.4,52,0.00,CLR,,0.00,686.0,WeatherDisplay:10.37,2013-08-07 13:19:00,
2013-08-07 15:20:00,93.9,73.6,29.93,WNW,289,9.2,9.2,52,0.00,CLR,,0.00,682.0,WeatherDisplay:10.37,2013-08-07 13:20:00,
2013-08-07 15:22:00,93.9,74.2,29.93,SSW,212,11.5,11.5,53,0.00,CLR,,0.00,677.0,WeatherDisplay:10.37,2013-08-07 13:22:00,
2013-08-07 15:24:00,94.1,74.4,29.93,WSW,244,8.1,8.1,53,0.00,CLR,,0.00,677.0,WeatherDisplay:10.37,2013-08-07 13:24:00,
2013-08-07 15:25:00,94.3,74.0,29.93,SW,219,8.1,8.1,52,0.00,CLR,,0.00,666.0,WeatherDisplay:10.37,2013-08-07 13:25:00,
2013-08-07 15:27:00,94.0,74.8,29.93,West,262,13.8,13.8,54,0.00,CLR,,0.00,664.0,WeatherDisplay:10.37,2013-08-07 13:27:00,
2013-08-07 15:29:00,93.9,74.7,29.93,SSW,194,11.5,11.5,54,0.00,CLR,,0.00,664.0,WeatherDisplay:10.37,2013-08-07 13:29:00,
2013-08-07 15:30:00,93.8,74.6,29.93,SW,231,11.5,11.5,54,0.00,CLR,,0.00,657.0,WeatherDisplay:10.37,2013-08-07 13:30:00,
2013-08-07 15:31:00,93.8,75.2,29.93,WSW,254,9.2,9.2,55,0.00,CLR,,0.00,657.0,WeatherDisplay:10.37,2013-08-07 13:31:00,
2013-08-07 15:33:00,93.8,74.6,29.93,WSW,241,11.5,11.5,54,0.00,CLR,,0.00,647.0,WeatherDisplay:10.37,2013-08-07 13:33:00,
2013-08-07 15:34:00,93.9,74.7,29.93,West,265,9.2,9.2,54,0.00,CLR,,0.00,647.0,WeatherDisplay:10.37,2013-08-07 13:34:00,
2013-08-07 15:35:00,93.8,74.6,29.93,West,273,11.5,11.5,54,0.00,CLR,,0.00,649.0,WeatherDisplay:10.37,2013-08-07 13:35:00,
2013-08-07 15:36:00,93.8,74.6,29.93,SW,232,11.5,11.5,54,0.00,FEW,,0.00,649.0,WeatherDisplay:10.37,2013-08-07 13:36:00,
2013-08-07 15:39:00,93.5,74.4,29.93,West,263,16.1,16.1,54,0.00,CLR,,0.00,647.0,WeatherDisplay:10.37,2013-08-07 13:39:00,
2013-08-07 15:41:00,93.2,75.2,29.93,West,259,13.8,13.8,56,0.00,CLR,,0.00,636.0,WeatherDisplay:10.37,2013-08-07 13:41:00,
2013-08-07 15:44:00,92.9,74.9,29.93,WSW,246,12.7,12.7,56,0.00,CLR,,0.00,629.0,WeatherDisplay:10.37,2013-08-07 13:44:00,
2013-08-07 15:46:00,93.3,75.3,29.93,WSW,239,11.5,11.5,56,0.00,CLR,,0.00,629.0,WeatherDisplay:10.37,2013-08-07 13:46:00,
2013-08-07 15:50:00,92.9,74.4,29.93,WSW,244,9.2,9.2,55,0.00,CLR,,0.00,621.0,WeatherDisplay:10.37,2013-08-07 13:50:00,
2013-08-07 15:51:00,92.8,74.8,29.93,SW,231,10.4,10.4,56,0.00,CLR,,0.00,613.0,WeatherDisplay:10.37,2013-08-07 13:51:00,
2013-08-07 15:52:00,92.8,74.8,29.93,SW,227,11.5,11.5,56,0.00,CLR,,0.00,613.0,WeatherDisplay:10.37,2013-08-07 13:52:00,
2013-08-07 15:56:00,93.3,75.3,29.93,WSW,250,10.4,10.4,56,0.00,CLR,,0.00,605.0,WeatherDisplay:10.37,2013-08-07 13:56:00,
2013-08-07 15:57:00,93.3,75.3,29.93,SW,229,12.0,12.0,56,0.00,CLR,,0.00,605.0,WeatherDisplay:10.37,2013-08-07 13:57:00,
2013-08-07 15:58:00,93.3,75.3,29.93,WSW,254,13.8,13.8,56,0.00,CLR,,0.00,601.0,WeatherDisplay:10.37,2013-08-07 13:58:00,
2013-08-07 16:01:00,92.5,74.5,29.93,West,275,11.5,11.5,56,0.00,CLR,,0.00,591.0,WeatherDisplay:10.37,2013-08-07 14:01:00,
2013-08-07 16:02:00,92.5,74.5,29.93,West,263,11.5,11.5,56,0.00,CLR,,0.00,592.0,WeatherDisplay:10.37,2013-08-07 14:02:00,
2013-08-07 16:03:00,92.4,74.4,29.93,West,265,13.8,13.8,56,0.00,CLR,,0.00,592.0,WeatherDisplay:10.37,2013-08-07 14:03:00,
2013-08-07 16:04:00,92.3,74.3,29.93,West,271,13.8,13.8,56,0.00,CLR,,0.00,589.0,WeatherDisplay:10.37,2013-08-07 14:04:00,
2013-08-07 16:05:00,92.3,74.3,29.93,WSW,249,11.5,11.5,56,0.00,CLR,,0.00,585.0,WeatherDisplay:10.37,2013-08-07 14:05:00,
2013-08-07 16:06:00,92.2,74.2,29.93,West,265,12.7,12.7,56,0.00,CLR,,0.00,585.0,WeatherDisplay:10.37,2013-08-07 14:06:00,
2013-08-07 16:07:00,92.2,74.2,29.93,WSW,250,6.9,6.9,56,0.00,CLR,,0.00,585.0,WeatherDisplay:10.37,2013-08-07 14:07:00,
2013-08-07 16:08:00,92.7,74.2,29.93,WSW,242,9.0,9.0,55,0.00,CLR,,0.00,575.0,WeatherDisplay:10.37,2013-08-07 14:08:00,
2013-08-07 16:09:00,92.8,74.3,29.93,WSW,257,12.7,12.7,55,0.00,CLR,,0.00,575.0,WeatherDisplay:10.37,2013-08-07 14:09:00,
2013-08-07 16:11:00,92.7,74.2,29.93,WSW,253,11.5,11.5,55,0.00,CLR,,0.00,575.0,WeatherDisplay:10.37,2013-08-07 14:11:00,
2013-08-07 16:12:00,92.7,74.2,29.93,WSW,253,10.4,10.4,55,0.00,CLR,,0.00,568.0,WeatherDisplay:10.37,2013-08-07 14:12:00,
2013-08-07 16:13:00,92.5,74.5,29.93,SW,225,13.8,13.8,56,0.00,CLR,,0.00,566.0,WeatherDisplay:10.37,2013-08-07 14:13:00,
2013-08-07 16:15:00,92.5,74.0,29.93,WSW,251,13.8,13.8,55,0.00,CLR,,0.00,563.0,WeatherDisplay:10.37,2013-08-07 14:15:00,
2013-08-07 16:16:00,92.9,74.9,29.93,SW,236,11.5,11.5,56,0.00,CLR,,0.00,559.0,WeatherDisplay:10.37,2013-08-07 14:16:00,
2013-08-07 16:17:00,92.8,74.3,29.93,SSW,193,10.4,10.4,55,0.00,CLR,,0.00,555.0,WeatherDisplay:10.37,2013-08-07 14:17:00,
2013-08-07 16:18:00,92.9,73.8,29.93,WSW,247,10.4,10.4,54,0.00,CLR,,0.00,555.0,WeatherDisplay:10.37,2013-08-07 14:18:00,
2013-08-07 16:19:00,92.9,73.8,29.93,West,265,9.2,9.2,54,0.00,CLR,,0.00,550.0,WeatherDisplay:10.37,2013-08-07 14:19:00,
2013-08-07 16:20:00,92.9,73.8,29.93,West,266,10.4,10.4,54,0.00,CLR,,0.00,548.0,WeatherDisplay:10.37,2013-08-07 14:20:00,
2013-08-07 16:21:00,92.7,74.2,29.93,SW,234,10.4,10.4,55,0.00,CLR,,0.00,547.0,WeatherDisplay:10.37,2013-08-07 14:21:00,
2013-08-07 16:22:00,92.7,73.6,29.93,SW,221,10.4,10.4,54,0.00,CLR,,0.00,543.0,WeatherDisplay:10.37,2013-08-07 14:22:00,
2013-08-07 16:24:00,92.6,73.5,29.93,WSW,253,11.5,11.5,54,0.00,CLR,,0.00,538.0,WeatherDisplay:10.37,2013-08-07 14:24:00,
2013-08-07 16:25:00,92.6,73.5,29.93,SW,232,11.5,11.5,54,0.00,CLR,,0.00,538.0,WeatherDisplay:10.37,2013-08-07 14:25:00,
2013-08-07 16:26:00,92.9,74.4,29.93,WSW,239,7.0,7.0,55,0.00,CLR,,0.00,529.0,WeatherDisplay:10.37,2013-08-07 14:26:00,
2013-08-07 16:28:00,93.1,74.0,29.93,West,260,11.5,11.5,54,0.00,CLR,,0.00,529.0,WeatherDisplay:10.37,2013-08-07 14:28:00,
2013-08-07 16:29:00,93.0,74.4,29.93,West,274,11.5,11.5,55,0.00,CLR,,0.00,529.0,WeatherDisplay:10.37,2013-08-07 14:29:00,
2013-08-07 16:30:00,92.9,74.4,29.93,West,273,11.5,11.5,55,0.00,CLR,,0.00,526.0,WeatherDisplay:10.37,2013-08-07 14:30:00,
2013-08-07 16:32:00,92.6,74.6,29.93,WSW,244,10.4,10.4,56,0.00,CLR,,0.00,522.0,WeatherDisplay:10.37,2013-08-07 14:32:00,
2013-08-07 16:33:00,92.6,74.6,29.93,SSW,207,11.5,11.5,56,0.00,CLR,,0.00,520.0,WeatherDisplay:10.37,2013-08-07 14:33:00,
2013-08-07 16:34:00,92.8,74.8,29.93,SW,236,9.2,9.2,56,0.00,CLR,,0.00,520.0,WeatherDisplay:10.37,2013-08-07 14:34:00,
2013-08-07 16:35:00,92.8,74.8,29.93,West,273,9.2,9.2,56,0.00,CLR,,0.00,515.0,WeatherDisplay:10.37,2013-08-07 14:35:00,
2013-08-07 16:37:00,92.6,74.1,29.93,WSW,253,9.2,9.2,55,0.00,CLR,,0.00,513.0,WeatherDisplay:10.37,2013-08-07 14:37:00,
2013-08-07 16:38:00,92.5,74.0,29.93,West,268,13.8,13.8,55,0.00,CLR,,0.00,510.0,WeatherDisplay:10.37,2013-08-07 14:38:00,
2013-08-07 16:39:00,92.2,74.2,29.93,West,280,11.5,11.5,56,0.00,CLR,,0.00,508.0,WeatherDisplay:10.37,2013-08-07 14:39:00,
2013-08-07 16:41:00,92.0,74.1,29.93,West,269,10.4,10.4,56,0.00,CLR,,0.00,504.0,WeatherDisplay:10.37,2013-08-07 14:41:00,
2013-08-07 16:42:00,91.8,74.4,29.93,WNW,286,9.2,9.2,57,0.00,CLR,,0.00,499.0,WeatherDisplay:10.37,2013-08-07 14:42:00,
2013-08-07 16:43:00,91.7,74.3,29.93,West,275,11.5,11.5,57,0.00,CLR,,0.00,496.0,WeatherDisplay:10.37,2013-08-07 14:43:00,
2013-08-07 16:46:00,91.4,74.0,29.93,WSW,244,11.5,11.5,57,0.00,CLR,,0.00,489.0,WeatherDisplay:10.37,2013-08-07 14:46:00,
2013-08-07 16:47:00,91.5,74.1,29.93,SW,236,10.0,10.0,57,0.00,CLR,,0.00,483.0,WeatherDisplay:10.37,2013-08-07 14:47:00,
2013-08-07 16:48:00,91.6,74.7,29.93,SW,219,11.5,11.5,58,0.00,CLR,,0.00,482.0,WeatherDisplay:10.37,2013-08-07 14:48:00,
2013-08-07 16:50:00,91.8,74.4,29.93,WSW,242,11.5,11.5,57,0.00,CLR,,0.00,476.0,WeatherDisplay:10.37,2013-08-07 14:50:00,
2013-08-07 16:51:00,91.8,74.4,29.93,SW,219,11.5,11.5,57,0.00,CLR,,0.00,476.0,WeatherDisplay:10.37,2013-08-07 14:51:00,
2013-08-07 16:52:00,91.9,74.0,29.93,SW,224,11.5,11.5,56,0.00,CLR,,0.00,469.0,WeatherDisplay:10.37,2013-08-07 14:52:00,
2013-08-07 16:53:00,91.8,73.9,29.93,WSW,238,9.2,9.2,56,0.00,CLR,,0.00,468.0,WeatherDisplay:10.37,2013-08-07 14:53:00,
2013-08-07 16:56:00,91.6,74.2,29.93,WSW,238,11.5,11.5,57,0.00,CLR,,0.00,461.0,WeatherDisplay:10.37,2013-08-07 14:56:00,
2013-08-07 16:57:00,91.3,73.9,29.92,WSW,255,10.4,10.4,57,0.00,CLR,,0.00,459.0,WeatherDisplay:10.37,2013-08-07 14:57:00,
2013-08-07 16:59:00,91.5,74.6,29.93,SW,232,9.2,9.2,58,0.00,CLR,,0.00,455.0,WeatherDisplay:10.37,2013-08-07 14:59:00,
2013-08-07 17:01:00,91.5,74.1,29.93,WSW,244,9.2,9.2,57,0.00,CLR,,0.00,455.0,WeatherDisplay:10.37,2013-08-07 15:01:00,
2013-08-07 17:02:00,91.7,74.3,29.92,WSW,257,9.2,9.2,57,0.00,CLR,,0.00,443.0,WeatherDisplay:10.37,2013-08-07 15:02:00,
2013-08-07 17:04:00,92.3,74.9,29.93,WNW,292,9.2,9.2,57,0.00,CLR,,0.00,438.0,WeatherDisplay:10.37,2013-08-07 15:04:00,
2013-08-07 17:06:00,92.3,74.3,29.93,WSW,253,12.7,12.7,56,0.00,CLR,,0.00,432.0,WeatherDisplay:10.37,2013-08-07 15:06:00,
2013-08-07 17:07:00,92.0,74.1,29.93,WSW,257,11.5,11.5,56,0.00,CLR,,0.00,432.0,WeatherDisplay:10.37,2013-08-07 15:07:00,
2013-08-07 17:08:00,91.9,74.0,29.93,West,264,11.5,11.5,56,0.00,CLR,,0.00,431.0,WeatherDisplay:10.37,2013-08-07 15:08:00,
2013-08-07 17:10:00,91.6,74.2,29.93,WSW,237,10.0,10.0,57,0.00,CLR,,0.00,424.0,WeatherDisplay:10.37,2013-08-07 15:10:00,
2013-08-07 17:12:00,91.5,74.1,29.93,WSW,243,10.4,10.4,57,0.00,CLR,,0.00,418.0,WeatherDisplay:10.37,2013-08-07 15:12:00,
2013-08-07 17:13:00,91.3,73.4,29.93,WSW,238,9.2,9.2,56,0.00,CLR,,0.00,415.0,WeatherDisplay:10.37,2013-08-07 15:13:00,
2013-08-07 17:15:00,91.3,74.4,29.93,WSW,248,11.5,11.5,58,0.00,CLR,,0.00,408.0,WeatherDisplay:10.37,2013-08-07 15:15:00,
2013-08-07 17:17:00,91.6,74.7,29.93,WSW,251,10.4,10.4,58,0.00,CLR,,0.00,404.0,WeatherDisplay:10.37,2013-08-07 15:17:00,
2013-08-07 17:18:00,91.7,74.3,29.93,WSW,246,8.0,8.0,57,0.00,CLR,,0.00,397.0,WeatherDisplay:10.37,2013-08-07 15:18:00,
2013-08-07 17:20:00,91.9,75.0,29.93,West,277,8.1,8.1,58,0.00,CLR,,0.00,394.0,WeatherDisplay:10.37,2013-08-07 15:20:00,
2013-08-07 17:22:00,92.1,74.7,29.93,West,271,11.5,11.5,57,0.00,CLR,,0.00,387.0,WeatherDisplay:10.37,2013-08-07 15:22:00,
2013-08-07 17:23:00,92.1,74.7,29.93,West,273,8.1,8.1,57,0.00,CLR,,0.00,385.0,WeatherDisplay:10.37,2013-08-07 15:23:00,
2013-08-07 17:24:00,92.1,74.7,29.93,WNW,284,11.5,11.5,57,0.00,CLR,,0.00,385.0,WeatherDisplay:10.37,2013-08-07 15:24:00,
2013-08-07 17:25:00,92.1,74.7,29.93,West,273,14.0,14.0,57,0.00,CLR,,0.00,385.0,WeatherDisplay:10.37,2013-08-07 15:25:00,
2013-08-07 17:28:00,91.7,74.3,29.93,West,270,12.0,12.0,57,0.00,CLR,,0.00,373.0,WeatherDisplay:10.37,2013-08-07 15:28:00,
2013-08-07 17:29:00,91.7,74.3,29.92,West,271,11.5,11.5,57,0.00,CLR,,0.00,371.0,WeatherDisplay:10.37,2013-08-07 15:29:00,
2013-08-07 17:31:00,91.5,74.1,29.93,SSW,211,10.4,10.4,57,0.00,CLR,,0.00,364.0,WeatherDisplay:10.37,2013-08-07 15:31:00,
2013-08-07 17:33:00,91.5,74.1,29.93,WSW,244,9.2,9.2,57,0.00,CLR,,0.00,355.0,WeatherDisplay:10.37,2013-08-07 15:33:00,
2013-08-07 17:34:00,91.6,74.2,29.92,WSW,242,9.2,9.2,57,0.00,CLR,,0.00,353.0,WeatherDisplay:10.37,2013-08-07 15:34:00,
2013-08-07 17:37:00,91.5,74.1,29.92,West,271,11.5,11.5,57,0.00,CLR,,0.00,345.0,WeatherDisplay:10.37,2013-08-07 15:37:00,
2013-08-07 17:38:00,91.5,74.6,29.92,West,277,11.5,11.5,58,0.00,CLR,,0.00,343.0,WeatherDisplay:10.37,2013-08-07 15:38:00,
2013-08-07 17:39:00,91.5,74.6,29.92,West,259,11.5,11.5,58,0.00,CLR,,0.00,343.0,WeatherDisplay:10.37,2013-08-07 15:39:00,
2013-08-07 17:40:00,91.4,74.5,29.92,SW,229,10.4,10.4,58,0.00,CLR,,0.00,334.0,WeatherDisplay:10.37,2013-08-07 15:40:00,
2013-08-07 17:42:00,91.4,74.5,29.92,SW,234,9.2,9.2,58,0.00,CLR,,0.00,327.0,WeatherDisplay:10.37,2013-08-07 15:42:00,
2013-08-07 17:43:00,91.4,74.5,29.92,SW,219,10.4,10.4,58,0.00,CLR,,0.00,323.0,WeatherDisplay:10.37,2013-08-07 15:43:00,
2013-08-07 17:44:00,91.5,74.6,29.92,West,279,10.4,10.4,58,0.00,CLR,,0.00,323.0,WeatherDisplay:10.37,2013-08-07 15:44:00,
2013-08-07 17:46:00,91.5,74.6,29.92,SW,223,11.5,11.5,58,0.00,FEW,,0.00,316.0,WeatherDisplay:10.37,2013-08-07 15:46:00,
2013-08-07 17:47:00,91.5,74.6,29.92,SW,225,10.0,10.0,58,0.00,FEW,,0.00,315.0,WeatherDisplay:10.37,2013-08-07 15:47:00,
2013-08-07 17:48:00,91.3,74.4,29.92,WSW,257,11.5,11.5,58,0.00,FEW,,0.00,313.0,WeatherDisplay:10.37,2013-08-07 15:48:00,
2013-08-07 17:49:00,91.3,74.4,29.92,WNW,282,11.5,11.5,58,0.00,FEW,,0.00,308.0,WeatherDisplay:10.37,2013-08-07 15:49:00,
2013-08-07 17:51:00,91.2,74.4,29.92,West,259,9.2,9.2,58,0.00,FEW,,0.00,301.0,WeatherDisplay:10.37,2013-08-07 15:51:00,
2013-08-07 17:52:00,91.2,74.4,29.92,WSW,246,11.5,11.5,58,0.00,FEW,,0.00,301.0,WeatherDisplay:10.37,2013-08-07 15:52:00,
2013-08-07 17:53:00,91.1,74.3,29.92,West,259,10.4,10.4,58,0.00,FEW,,0.00,294.0,WeatherDisplay:10.37,2013-08-07 15:53:00,
2013-08-07 17:54:00,91.2,74.4,29.92,WSW,252,10.4,10.4,58,0.00,FEW,,0.00,294.0,WeatherDisplay:10.37,2013-08-07 15:54:00,
2013-08-07 17:55:00,91.2,74.4,29.92,WNW,287,5.8,5.8,58,0.00,FEW,,0.00,294.0,WeatherDisplay:10.37,2013-08-07 15:55:00,
2013-08-07 17:56:00,91.4,74.5,29.92,WSW,244,10.0,10.0,58,0.00,FEW,,0.00,283.0,WeatherDisplay:10.37,2013-08-07 15:56:00,
2013-08-07 17:57:00,91.4,74.5,29.92,SW,232,11.5,11.5,58,0.00,FEW,,0.00,281.0,WeatherDisplay:10.37,2013-08-07 15:57:00,
2013-08-07 17:58:00,91.4,74.5,29.92,SW,236,10.4,10.4,58,0.00,FEW,,0.00,276.0,WeatherDisplay:10.37,2013-08-07 15:58:00,
2013-08-07 17:59:00,91.5,74.6,29.92,West,265,9.2,9.2,58,0.00,FEW,,0.00,276.0,WeatherDisplay:10.37,2013-08-07 15:59:00,
2013-08-07 18:00:00,91.5,74.6,29.92,WSW,248,10.4,10.4,58,0.00,FEW,,0.00,274.0,WeatherDisplay:10.37,2013-08-07 16:00:00,
2013-08-07 18:02:00,91.4,74.5,29.92,SW,223,10.4,10.4,58,0.00,FEW,,0.00,267.0,WeatherDisplay:10.37,2013-08-07 16:02:00,
2013-08-07 18:04:00,91.3,74.4,29.92,WSW,250,13.0,13.0,58,0.00,FEW,,0.00,265.0,WeatherDisplay:10.37,2013-08-07 16:04:00,
2013-08-07 18:05:00,91.3,74.4,29.92,WSW,257,12.0,12.0,58,0.00,FEW,,0.00,260.0,WeatherDisplay:10.37,2013-08-07 16:05:00,
2013-08-07 18:06:00,91.2,74.9,29.92,WNW,283,12.7,12.7,59,0.00,FEW,,0.00,258.0,WeatherDisplay:10.37,2013-08-07 16:06:00,
2013-08-07 18:08:00,91.0,74.7,29.92,WSW,249,12.0,12.0,59,0.00,FEW,,0.00,257.0,WeatherDisplay:10.37,2013-08-07 16:08:00,
2013-08-07 18:09:00,90.8,74.5,29.92,SW,235,12.7,12.7,59,0.00,FEW,,0.00,250.0,WeatherDisplay:10.37,2013-08-07 16:09:00,
2013-08-07 18:10:00,90.6,74.8,29.92,WSW,254,12.7,12.7,60,0.00,FEW,,0.00,250.0,WeatherDisplay:10.37,2013-08-07 16:10:00,
2013-08-07 18:11:00,90.6,74.8,29.92,WSW,257,10.4,10.4,60,0.00,FEW,,0.00,244.0,WeatherDisplay:10.37,2013-08-07 16:11:00,
2013-08-07 18:13:00,90.5,74.7,29.92,WSW,252,8.1,8.1,60,0.00,FEW,,0.00,237.0,WeatherDisplay:10.37,2013-08-07 16:13:00,
2013-08-07 18:16:00,90.7,75.4,29.92,SW,227,13.8,13.8,61,0.00,FEW,,0.00,229.0,WeatherDisplay:10.37,2013-08-07 16:16:00,
2013-08-07 18:18:00,90.5,75.2,29.92,WSW,250,15.0,15.0,61,0.00,FEW,,0.00,221.0,WeatherDisplay:10.37,2013-08-07 16:18:00,
2013-08-07 18:19:00,90.5,75.2,29.92,WSW,257,15.0,15.0,61,0.00,FEW,,0.00,221.0,WeatherDisplay:10.37,2013-08-07 16:19:00,
2013-08-07 18:21:00,90.3,75.0,29.92,WSW,246,11.5,11.5,61,0.00,FEW,,0.00,214.0,WeatherDisplay:10.37,2013-08-07 16:21:00,
2013-08-07 18:22:00,90.2,74.9,29.92,West,269,10.4,10.4,61,0.00,FEW,,0.00,214.0,WeatherDisplay:10.37,2013-08-07 16:22:00,
2013-08-07 18:24:00,90.1,74.8,29.92,West,275,11.5,11.5,61,0.00,FEW,,0.00,207.0,WeatherDisplay:10.37,2013-08-07 16:24:00,
2013-08-07 18:26:00,90.0,74.7,29.92,WSW,246,9.2,9.2,61,0.00,FEW,,0.00,199.0,WeatherDisplay:10.37,2013-08-07 16:26:00,
2013-08-07 18:27:00,89.9,74.6,29.92,WSW,254,9.2,9.2,61,0.00,FEW,,0.00,199.0,WeatherDisplay:10.37,2013-08-07 16:27:00,
2013-08-07 18:29:00,89.9,75.1,29.92,WSW,246,11.5,11.5,62,0.00,FEW,,0.00,193.0,WeatherDisplay:10.37,2013-08-07 16:29:00,
2013-08-07 18:31:00,89.7,74.9,29.92,West,269,9.2,9.2,62,0.00,FEW,,0.00,185.0,WeatherDisplay:10.37,2013-08-07 16:31:00,
2013-08-07 18:32:00,89.7,74.9,29.92,WSW,255,11.0,11.0,62,0.00,FEW,,0.00,185.0,WeatherDisplay:10.37,2013-08-07 16:32:00,
2013-08-07 18:34:00,89.6,74.9,29.92,West,259,12.7,12.7,62,0.00,FEW,,0.00,174.0,WeatherDisplay:10.37,2013-08-07 16:34:00,
2013-08-07 18:37:00,89.3,75.0,29.92,WSW,257,11.5,11.5,63,0.00,FEW,,0.00,165.0,WeatherDisplay:10.37,2013-08-07 16:37:00,
2013-08-07 18:39:00,89.1,74.9,29.92,West,265,12.7,12.7,63,0.00,FEW,,0.00,162.0,WeatherDisplay:10.37,2013-08-07 16:39:00,
2013-08-07 18:41:00,89.0,75.2,29.92,WNW,285,11.5,11.5,64,0.00,FEW,,0.00,151.0,WeatherDisplay:10.37,2013-08-07 16:41:00,
2013-08-07 18:42:00,89.0,75.2,29.92,WSW,243,11.5,11.5,64,0.00,FEW,,0.00,148.0,WeatherDisplay:10.37,2013-08-07 16:42:00,
2013-08-07 18:43:00,89.1,74.9,29.92,WSW,247,11.5,11.5,63,0.00,FEW,,0.00,146.0,WeatherDisplay:10.37,2013-08-07 16:43:00,
2013-08-07 18:45:00,89.0,74.8,29.92,WSW,252,11.5,11.5,63,0.00,FEW,,0.00,142.0,WeatherDisplay:10.37,2013-08-07 16:45:00,
2013-08-07 18:46:00,88.9,74.7,29.92,WSW,246,12.7,12.7,63,0.00,FEW,,0.00,135.0,WeatherDisplay:10.37,2013-08-07 16:46:00,
2013-08-07 18:47:00,88.9,74.7,29.92,WSW,252,12.7,12.7,63,0.00,FEW,,0.00,132.0,WeatherDisplay:10.37,2013-08-07 16:47:00,
2013-08-07 18:48:00,88.8,74.6,29.92,WSW,244,12.7,12.7,63,0.00,FEW,,0.00,132.0,WeatherDisplay:10.37,2013-08-07 16:48:00,
2013-08-07 18:50:00,88.7,74.5,29.92,SW,220,12.7,12.7,63,0.00,FEW,,0.00,125.0,WeatherDisplay:10.37,2013-08-07 16:50:00,
2013-08-07 18:51:00,88.7,74.5,29.92,WSW,244,10.0,10.0,63,0.00,FEW,,0.00,123.0,WeatherDisplay:10.37,2013-08-07 16:51:00,
2013-08-07 18:52:00,88.7,74.5,29.92,SW,221,12.7,12.7,63,0.00,FEW,,0.00,120.0,WeatherDisplay:10.37,2013-08-07 16:52:00,
2013-08-07 18:53:00,88.7,74.5,29.92,South,191,11.5,11.5,63,0.00,FEW,,0.00,116.0,WeatherDisplay:10.37,2013-08-07 16:53:00,
2013-08-07 18:55:00,88.6,74.4,29.92,West,261,11.5,11.5,63,0.00,FEW,,0.00,114.0,WeatherDisplay:10.37,2013-08-07 16:55:00,
2013-08-07 18:57:00,88.5,74.3,29.92,SW,228,11.5,11.5,63,0.00,FEW,,0.00,109.0,WeatherDisplay:10.37,2013-08-07 16:57:00,
2013-08-07 18:59:00,88.4,74.2,29.92,WSW,257,10.4,10.4,63,0.00,FEW,,0.00,104.0,WeatherDisplay:10.37,2013-08-07 16:59:00,
2013-08-07 19:00:00,88.4,74.2,29.92,SW,236,12.0,12.0,63,0.00,FEW,,0.00,98.0,WeatherDisplay:10.37,2013-08-07 17:00:00,
2013-08-07 19:02:00,88.3,74.1,29.92,WSW,242,11.5,11.5,63,0.00,FEW,,0.00,95.0,WeatherDisplay:10.37,2013-08-07 17:02:00,
2013-08-07 19:04:00,88.1,73.9,29.92,SW,234,11.5,11.5,63,0.00,FEW,,0.00,90.0,WeatherDisplay:10.37,2013-08-07 17:04:00,
2013-08-07 19:06:00,88.1,74.4,29.92,WSW,245,11.5,11.5,64,0.00,FEW,,0.00,88.0,WeatherDisplay:10.37,2013-08-07 17:06:00,
2013-08-07 19:07:00,88.0,74.3,29.91,WSW,252,12.0,12.0,64,0.00,FEW,,0.00,83.0,WeatherDisplay:10.37,2013-08-07 17:07:00,
2013-08-07 19:09:00,88.0,74.3,29.92,WSW,244,10.4,10.4,64,0.00,FEW,,0.00,79.0,WeatherDisplay:10.37,2013-08-07 17:09:00,
2013-08-07 19:11:00,87.9,74.2,29.92,WSW,244,9.2,9.2,64,0.00,FEW,,0.00,79.0,WeatherDisplay:10.37,2013-08-07 17:11:00,
2013-08-07 19:12:00,87.8,74.1,29.92,WSW,242,9.2,9.2,64,0.00,FEW,,0.00,74.0,WeatherDisplay:10.37,2013-08-07 17:12:00,
2013-08-07 19:14:00,87.8,74.1,29.92,WSW,252,10.4,10.4,64,0.00,FEW,,0.00,67.0,WeatherDisplay:10.37,2013-08-07 17:14:00,
2013-08-07 19:16:00,87.6,73.9,29.92,West,272,11.5,11.5,64,0.00,FEW,,0.00,67.0,WeatherDisplay:10.37,2013-08-07 17:16:00,
2013-08-07 19:17:00,87.6,73.9,29.92,WSW,245,11.5,11.5,64,0.00,FEW,,0.00,62.0,WeatherDisplay:10.37,2013-08-07 17:17:00,
2013-08-07 19:19:00,87.5,74.3,29.92,WSW,254,9.2,9.2,65,0.00,FEW,,0.00,58.0,WeatherDisplay:10.37,2013-08-07 17:19:00,
2013-08-07 19:20:00,87.5,74.3,29.92,West,260,9.2,9.2,65,0.00,FEW,,0.00,56.0,WeatherDisplay:10.37,2013-08-07 17:20:00,
2013-08-07 19:21:00,87.4,74.2,29.92,West,270,6.9,6.9,65,0.00,FEW,,0.00,54.0,WeatherDisplay:10.37,2013-08-07 17:21:00,
2013-08-07 19:22:00,87.4,74.2,29.92,West,261,6.9,6.9,65,0.00,FEW,,0.00,53.0,WeatherDisplay:10.37,2013-08-07 17:22:00,
2013-08-07 19:24:00,87.4,74.2,29.92,West,277,10.4,10.4,65,0.00,FEW,,0.00,49.0,WeatherDisplay:10.37,2013-08-07 17:24:00,
2013-08-07 19:25:00,87.3,74.1,29.92,WSW,257,11.5,11.5,65,0.00,FEW,,0.00,47.0,WeatherDisplay:10.37,2013-08-07 17:25:00,
2013-08-07 19:26:00,87.3,73.6,29.92,SW,234,11.5,11.5,64,0.00,FEW,,0.00,46.0,WeatherDisplay:10.37,2013-08-07 17:26:00,
2013-08-07 19:27:00,87.2,73.5,29.92,WSW,245,8.1,8.1,64,0.00,FEW,,0.00,44.0,WeatherDisplay:10.37,2013-08-07 17:27:00,
2013-08-07 19:28:00,87.2,73.5,29.92,WSW,239,10.4,10.4,64,0.00,FEW,,0.00,42.0,WeatherDisplay:10.37,2013-08-07 17:28:00,
2013-08-07 19:29:00,87.1,73.4,29.92,WSW,254,9.2,9.2,64,0.00,FEW,,0.00,40.0,WeatherDisplay:10.37,2013-08-07 17:29:00,
2013-08-07 19:30:00,87.1,73.9,29.92,WSW,250,8.1,8.1,65,0.00,FEW,,0.00,40.0,WeatherDisplay:10.37,2013-08-07 17:30:00,
2013-08-07 19:31:00,87.0,73.8,29.92,WSW,258,8.1,8.1,65,0.00,FEW,,0.00,39.0,WeatherDisplay:10.37,2013-08-07 17:31:00,
2013-08-07 19:33:00,87.0,73.8,29.92,West,267,8.1,8.1,65,0.00,FEW,,0.00,37.0,WeatherDisplay:10.37,2013-08-07 17:33:00,
2013-08-07 19:35:00,87.0,73.8,29.92,WSW,247,9.2,9.2,65,0.00,FEW,,0.00,37.0,WeatherDisplay:10.37,2013-08-07 17:35:00,
2013-08-07 19:36:00,87.0,73.8,29.92,SW,236,9.2,9.2,65,0.00,FEW,,0.00,33.0,WeatherDisplay:10.37,2013-08-07 17:36:00,
2013-08-07 19:38:00,86.8,73.6,29.92,West,275,9.2,9.2,65,0.00,FEW,,0.00,30.0,WeatherDisplay:10.37,2013-08-07 17:38:00,
2013-08-07 19:39:00,86.8,73.6,29.92,WSW,238,8.1,8.1,65,0.00,FEW,,0.00,30.0,WeatherDisplay:10.37,2013-08-07 17:39:00,
2013-08-07 19:40:00,86.7,73.5,29.93,West,262,9.2,9.2,65,0.00,FEW,,0.00,28.0,WeatherDisplay:10.37,2013-08-07 17:40:00,
2013-08-07 19:41:00,86.7,73.5,29.93,WSW,251,9.2,9.2,65,0.00,FEW,,0.00,28.0,WeatherDisplay:10.37,2013-08-07 17:41:00,
2013-08-07 19:42:00,86.6,73.4,29.93,West,267,6.9,6.9,65,0.00,FEW,,0.00,26.0,WeatherDisplay:10.37,2013-08-07 17:42:00,
2013-08-07 19:43:00,86.5,72.9,29.93,West,279,8.1,8.1,64,0.00,FEW,,0.00,25.0,WeatherDisplay:10.37,2013-08-07 17:43:00,
2013-08-07 19:44:00,86.5,72.9,29.93,WSW,237,8.1,8.1,64,0.00,FEW,,0.00,25.0,WeatherDisplay:10.37,2013-08-07 17:44:00,
2013-08-07 19:45:00,86.5,72.9,29.93,WSW,253,5.8,5.8,64,0.00,FEW,,0.00,23.0,WeatherDisplay:10.37,2013-08-07 17:45:00,
2013-08-07 19:46:00,86.5,73.3,29.92,SW,234,4.0,4.0,65,0.00,FEW,,0.00,23.0,WeatherDisplay:10.37,2013-08-07 17:46:00,
2013-08-07 19:47:00,86.5,73.3,29.92,WSW,256,5.0,5.0,65,0.00,FEW,,0.00,21.0,WeatherDisplay:10.37,2013-08-07 17:47:00,
2013-08-07 19:49:00,86.5,73.3,29.92,SSW,201,5.8,5.8,65,0.00,FEW,,0.00,21.0,WeatherDisplay:10.37,2013-08-07 17:49:00,
2013-08-07 19:51:00,86.5,73.3,29.92,SW,225,8.0,8.0,65,0.00,FEW,,0.00,18.0,WeatherDisplay:10.37,2013-08-07 17:51:00,
2013-08-07 19:52:00,86.5,73.3,29.92,SW,223,8.1,8.1,65,0.00,FEW,,0.00,18.0,WeatherDisplay:10.37,2013-08-07 17:52:00,
2013-08-07 19:55:00,86.5,72.9,29.93,WSW,246,5.8,5.8,64,0.00,FEW,,0.00,16.0,WeatherDisplay:10.37,2013-08-07 17:55:00,
2013-08-07 19:57:00,86.4,72.8,29.92,SW,220,5.8,5.8,64,0.00,FEW,,0.00,12.0,WeatherDisplay:10.37,2013-08-07 17:57:00,
2013-08-07 20:00:00,86.4,73.2,29.92,SW,233,4.6,4.8,65,0.00,FEW,,0.00,12.0,WeatherDisplay:10.37,2013-08-07 18:00:00,
2013-08-07 20:01:00,86.4,73.2,29.93,SSW,194,4.6,4.6,65,0.00,FEW,,0.00,11.0,WeatherDisplay:10.37,2013-08-07 18:01:00,
2013-08-07 20:02:00,86.3,73.1,29.93,SW,228,5.0,5.0,65,0.00,FEW,,0.00,9.0,WeatherDisplay:10.37,2013-08-07 18:02:00,
2013-08-07 20:03:00,86.3,73.1,29.93,SW,214,4.6,4.6,65,0.00,FEW,,0.00,9.0,WeatherDisplay:10.37,2013-08-07 18:03:00,
2013-08-07 20:05:00,86.3,73.1,29.93,SSW,209,3.5,3.5,65,0.00,FEW,,0.00,7.0,WeatherDisplay:10.37,2013-08-07 18:05:00,
2013-08-07 20:06:00,86.3,73.1,29.93,SSW,211,4.6,4.6,65,0.00,FEW,,0.00,7.0,WeatherDisplay:10.37,2013-08-07 18:06:00,
2013-08-07 20:07:00,86.2,73.0,29.93,SSW,211,4.6,4.6,65,0.00,FEW,,0.00,5.0,WeatherDisplay:10.37,2013-08-07 18:07:00,
2013-08-07 20:08:00,86.2,73.0,29.93,SW,231,5.0,5.0,65,0.00,FEW,,0.00,5.0,WeatherDisplay:10.37,2013-08-07 18:08:00,
2013-08-07 20:10:00,86.1,73.4,29.93,SW,219,4.6,4.6,66,0.00,FEW,,0.00,5.0,WeatherDisplay:10.37,2013-08-07 18:10:00,
2013-08-07 20:11:00,86.1,73.4,29.93,SW,229,4.6,4.6,66,0.00,FEW,,0.00,5.0,WeatherDisplay:10.37,2013-08-07 18:11:00,
2013-08-07 20:12:00,86.0,73.3,29.93,SW,228,4.0,4.0,66,0.00,FEW,,0.00,0.0,WeatherDisplay:10.37,2013-08-07 18:12:00,
2013-08-07 20:13:00,86.0,73.3,29.93,SW,228,3.5,3.5,66,0.00,FEW,,0.00,0.0,WeatherDisplay:10.37,2013-08-07 18:13:00,
2013-08-07 20:15:00,85.8,72.7,29.93,SSW,213,5.8,5.8,65,0.00,FEW,,0.00,0.0,WeatherDisplay:10.37,2013-08-07 18:15:00,
2013-08-07 20:16:00,85.8,72.7,29.93,SW,224,5.8,5.8,65,0.00,FEW,,0.00,0.0,WeatherDisplay:10.37,2013-08-07 18:16:00,
2013-08-07 20:18:00,85.7,73.0,29.93,SW,225,3.5,3.5,66,0.00,FEW,,0.00,0.0,WeatherDisplay:10.37,2013-08-07 18:18:00,
2013-08-07 20:20:00,85.6,72.9,29.93,SW,223,3.5,3.5,66,0.00,FEW,,0.00,0.0,WeatherDisplay:10.37,2013-08-07 18:20:00,
2013-08-07 20:22:00,85.6,72.9,29.93,SW,227,0.0,0.0,66,0.00,FEW,,0.00,0.0,WeatherDisplay:10.37,2013-08-07 18:22:00,
2013-08-07 20:23:00,85.5,72.8,29.93,SW,223,1.2,0.0,66,0.00,FEW,,0.00,0.0,WeatherDisplay:10.37,2013-08-07 18:23:00,
2013-08-07 20:24:00,85.5,72.8,29.93,SSW,200,0.0,0.0,66,0.00,FEW,,0.00,0.0,WeatherDisplay:10.37,2013-08-07 18:24:00,
2013-08-07 20:25:00,85.5,72.8,29.93,SW,215,1.2,1.8,66,0.00,FEW,,0.00,0.0,WeatherDisplay:10.37,2013-08-07 18:25:00,
2013-08-07 20:28:00,85.5,73.3,29.93,SW,222,5.0,5.0,67,0.00,FEW,,0.00,0.0,WeatherDisplay:10.37,2013-08-07 18:28:00,
2013-08-07 20:29:00,85.5,73.3,29.93,SW,216,4.6,4.6,67,0.00,FEW,,0.00,0.0,WeatherDisplay:10.37,2013-08-07 18:29:00,
2013-08-07 20:32:00,85.4,73.2,29.93,SW,217,3.5,3.5,67,0.00,FEW,,0.00,0.0,WeatherDisplay:10.37,2013-08-07 18:32:00,
2013-08-07 20:33:00,85.4,73.6,29.93,SW,225,3.5,3.5,68,0.00,FEW,,0.00,0.0,WeatherDisplay:10.37,2013-08-07 18:33:00,
2013-08-07 20:34:00,85.3,73.5,29.93,SW,226,0.0,0.0,68,0.00,FEW,,0.00,0.0,WeatherDisplay:10.37,2013-08-07 18:34:00,
2013-08-07 20:35:00,85.3,73.5,29.93,West,260,5.0,5.0,68,0.00,FEW,,0.00,0.0,WeatherDisplay:10.37,2013-08-07 18:35:00,
2013-08-07 20:37:00,85.3,73.5,29.93,SW,236,3.5,3.5,68,0.00,FEW,,0.00,0.0,WeatherDisplay:10.37,2013-08-07 18:37:00,
2013-08-07 20:38:00,85.3,73.5,29.93,WSW,240,3.5,3.5,68,0.00,FEW,,0.00,0.0,WeatherDisplay:10.37,2013-08-07 18:38:00,
2013-08-07 20:39:00,85.2,73.4,29.93,SW,227,0.0,0.0,68,0.00,FEW,,0.00,0.0,WeatherDisplay:10.37,2013-08-07 18:39:00,
2013-08-07 20:40:00,85.2,73.4,29.93,WSW,253,0.0,0.0,68,0.00,FEW,,0.00,0.0,WeatherDisplay:10.37,2013-08-07 18:40:00,
2013-08-07 20:42:00,85.1,73.3,29.93,West,262,0.0,0.0,68,0.00,FEW,,0.00,0.0,WeatherDisplay:10.37,2013-08-07 18:42:00,
2013-08-07 20:43:00,85.2,73.4,29.93,West,262,0.0,0.0,68,0.00,FEW,,0.00,0.0,WeatherDisplay:10.37,2013-08-07 18:43:00,
2013-08-07 20:45:00,85.1,73.3,29.93,West,262,0.0,0.0,68,0.00,FEW,,0.00,0.0,WeatherDisplay:10.37,2013-08-07 18:45:00,
2013-08-07 20:46:00,85.1,73.3,29.93,WSW,237,0.0,0.0,68,0.00,FEW,,0.00,0.0,WeatherDisplay:10.37,2013-08-07 18:46:00,
2013-08-07 20:48:00,85.1,73.8,29.93,WSW,255,1.2,1.2,69,0.00,FEW,,0.00,0.0,WeatherDisplay:10.37,2013-08-07 18:48:00,
2013-08-07 20:50:00,85.1,73.8,29.93,WNW,286,1.2,0.0,69,0.00,FEW,,0.00,0.0,WeatherDisplay:10.37,2013-08-07 18:50:00,
2013-08-07 20:51:00,85.0,73.7,29.93,West,277,0.0,0.0,69,0.00,FEW,,0.00,0.0,WeatherDisplay:10.37,2013-08-07 18:51:00,
2013-08-07 20:52:00,85.0,73.7,29.93,West,277,0.0,0.0,69,0.00,FEW,,0.00,0.0,WeatherDisplay:10.37,2013-08-07 18:52:00,
2013-08-07 20:53:00,85.0,73.7,29.93,West,277,0.0,0.0,69,0.00,FEW,,0.00,0.0,WeatherDisplay:10.37,2013-08-07 18:53:00,
2013-08-07 20:54:00,84.9,73.6,29.93,West,277,0.0,0.0,69,0.00,FEW,,0.00,0.0,WeatherDisplay:10.37,2013-08-07 18:54:00,
2013-08-07 20:55:00,84.9,73.6,29.93,West,277,0.0,0.0,69,0.00,FEW,,0.00,0.0,WeatherDisplay:10.37,2013-08-07 18:55:00,
2013-08-07 20:56:00,84.9,73.6,29.93,West,279,0.0,0.0,69,0.00,FEW,,0.00,0.0,WeatherDisplay:10.37,2013-08-07 18:56:00,
2013-08-07 20:57:00,84.9,73.6,29.93,WNW,294,0.0,0.0,69,0.00,FEW,,0.00,0.0,WeatherDisplay:10.37,2013-08-07 18:57:00,
2013-08-07 20:58:00,84.9,73.6,29.93,WNW,294,0.0,0.0,69,0.00,FEW,,0.00,0.0,WeatherDisplay:10.37,2013-08-07 18:58:00,
2013-08-07 20:59:00,84.9,73.6,29.93,WNW,294,0.0,0.0,69,0.00,FEW,,0.00,0.0,WeatherDisplay:10.37,2013-08-07 18:59:00,
2013-08-07 21:00:00,84.8,73.5,29.93,WNW,294,0.0,0.0,69,0.00,FEW,,0.00,0.0,WeatherDisplay:10.37,2013-08-07 19:00:00,
2013-08-07 21:02:00,84.8,73.5,29.93,NW,319,0.0,0.0,69,0.00,FEW,,0.00,0.0,WeatherDisplay:10.37,2013-08-07 19:02:00,
2013-08-07 21:04:00,84.7,73.8,29.93,North,5,0.0,0.0,70,0.00,FEW,,0.00,0.0,WeatherDisplay:10.37,2013-08-07 19:04:00,
2013-08-07 21:05:00,84.7,73.8,29.93,North,5,0.0,0.0,70,0.00,FEW,,0.00,0.0,WeatherDisplay:10.37,2013-08-07 19:05:00,
2013-08-07 21:07:00,84.7,73.8,29.93,North,5,0.0,0.0,70,0.00,FEW,,0.00,0.0,WeatherDisplay:10.37,2013-08-07 19:07:00,
2013-08-07 21:09:00,84.7,73.8,29.93,North,5,0.0,0.0,70,0.00,FEW,,0.00,0.0,WeatherDisplay:10.37,2013-08-07 19:09:00,
2013-08-07 21:10:00,84.7,73.8,29.93,North,5,0.0,0.0,70,0.00,FEW,,0.00,0.0,WeatherDisplay:10.37,2013-08-07 19:10:00,
2013-08-07 21:12:00,84.6,73.7,29.93,North,5,0.0,0.0,70,0.00,FEW,,0.00,0.0,WeatherDisplay:10.37,2013-08-07 19:12:00,
2013-08-07 21:14:00,84.5,73.6,29.93,North,5,0.0,0.0,70,0.00,FEW,,0.00,0.0,WeatherDisplay:10.37,2013-08-07 19:14:00,
2013-08-07 21:15:00,84.5,73.6,29.94,North,5,0.0,0.0,70,0.00,FEW,,0.00,0.0,WeatherDisplay:10.37,2013-08-07 19:15:00,
2013-08-07 21:17:00,84.5,73.6,29.93,North,5,0.0,0.0,70,0.00,FEW,,0.00,0.0,WeatherDisplay:10.37,2013-08-07 19:17:00,
2013-08-07 21:18:00,84.4,73.5,29.93,North,5,0.0,0.0,70,0.00,FEW,,0.00,0.0,WeatherDisplay:10.37,2013-08-07 19:18:00,
2013-08-07 21:20:00,84.4,73.5,29.93,North,5,0.0,0.0,70,0.00,FEW,,0.00,0.0,WeatherDisplay:10.37,2013-08-07 19:20:00,
2013-08-07 21:22:00,84.4,73.5,29.94,North,5,0.0,0.0,70,0.00,FEW,,0.00,0.0,WeatherDisplay:10.37,2013-08-07 19:22:00,
2013-08-07 21:24:00,84.3,73.4,29.94,North,5,0.0,0.0,70,0.00,FEW,,0.00,0.0,WeatherDisplay:10.37,2013-08-07 19:24:00,
2013-08-07 21:25:00,84.3,73.4,29.94,North,5,0.0,0.0,70,0.00,FEW,,0.00,0.0,WeatherDisplay:10.37,2013-08-07 19:25:00,
2013-08-07 21:26:00,84.3,73.4,29.94,North,5,0.0,0.0,70,0.00,FEW,,0.00,0.0,WeatherDisplay:10.37,2013-08-07 19:26:00,
2013-08-07 21:27:00,84.3,73.4,29.94,North,5,0.0,0.0,70,0.00,FEW,,0.00,0.0,WeatherDisplay:10.37,2013-08-07 19:27:00,
2013-08-07 21:29:00,84.2,73.3,29.94,North,5,0.0,0.0,70,0.00,FEW,,0.00,0.0,WeatherDisplay:10.37,2013-08-07 19:29:00,
2013-08-07 21:30:00,84.2,73.3,29.94,North,5,0.0,0.0,70,0.00,FEW,,0.00,0.0,WeatherDisplay:10.37,2013-08-07 19:30:00,
2013-08-07 21:31:00,84.2,73.3,29.94,North,5,0.0,0.0,70,0.00,FEW,,0.00,0.0,WeatherDisplay:10.37,2013-08-07 19:31:00,
2013-08-07 21:32:00,84.2,73.3,29.94,North,5,0.0,0.0,70,0.00,FEW,,0.00,0.0,WeatherDisplay:10.37,2013-08-07 19:32:00,
2013-08-07 21:34:00,84.2,73.8,29.94,North,5,0.0,0.0,71,0.00,FEW,,0.00,0.0,WeatherDisplay:10.37,2013-08-07 19:34:00,
2013-08-07 21:35:00,84.1,73.7,29.94,North,5,0.0,0.0,71,0.00,FEW,,0.00,0.0,WeatherDisplay:10.37,2013-08-07 19:35:00,
2013-08-07 21:36:00,84.1,73.7,29.94,North,5,0.0,0.0,71,0.00,FEW,,0.00,0.0,WeatherDisplay:10.37,2013-08-07 19:36:00,
2013-08-07 21:38:00,84.1,73.7,29.94,North,5,0.0,0.0,71,0.00,FEW,,0.00,0.0,WeatherDisplay:10.37,2013-08-07 19:38:00,
2013-08-07 21:39:00,84.1,73.7,29.94,North,5,0.0,0.0,71,0.00,FEW,,0.00,0.0,WeatherDisplay:10.37,2013-08-07 19:39:00,
2013-08-07 21:40:00,84.0,73.6,29.94,North,5,0.0,0.0,71,0.00,FEW,,0.00,0.0,WeatherDisplay:10.37,2013-08-07 19:40:00,
2013-08-07 21:41:00,84.0,73.6,29.94,North,5,0.0,0.0,71,0.00,FEW,,0.00,0.0,WeatherDisplay:10.37,2013-08-07 19:41:00,
2013-08-07 21:43:00,84.0,73.6,29.94,North,5,0.0,0.0,71,0.00,FEW,,0.00,0.0,WeatherDisplay:10.37,2013-08-07 19:43:00,
2013-08-07 21:44:00,83.9,73.5,29.94,North,5,0.0,0.0,71,0.00,FEW,,0.00,0.0,WeatherDisplay:10.37,2013-08-07 19:44:00,
2013-08-07 21:46:00,83.9,73.5,29.94,North,5,0.0,0.0,71,0.00,FEW,,0.00,0.0,WeatherDisplay:10.37,2013-08-07 19:46:00,
2013-08-07 21:48:00,83.8,73.4,29.94,North,5,0.0,0.0,71,0.00,FEW,,0.00,0.0,WeatherDisplay:10.37,2013-08-07 19:48:00,
2013-08-07 21:50:00,83.8,73.4,29.94,North,5,0.0,0.0,71,0.00,FEW,,0.00,0.0,WeatherDisplay:10.37,2013-08-07 19:50:00,
2013-08-07 21:51:00,83.7,73.3,29.94,North,5,0.0,0.0,71,0.00,FEW,,0.00,0.0,WeatherDisplay:10.37,2013-08-07 19:51:00,
2013-08-07 21:52:00,83.7,73.3,29.94,North,5,0.0,0.0,71,0.00,FEW,,0.00,0.0,WeatherDisplay:10.37,2013-08-07 19:52:00,
2013-08-07 21:53:00,83.6,73.2,29.94,North,5,0.0,0.0,71,0.00,FEW,,0.00,0.0,WeatherDisplay:10.37,2013-08-07 19:53:00,
2013-08-07 21:56:00,83.6,73.6,29.94,North,5,0.0,0.0,72,0.00,FEW,,0.00,0.0,WeatherDisplay:10.37,2013-08-07 19:56:00,
2013-08-07 21:57:00,83.5,73.5,29.94,North,5,0.0,0.0,72,0.00,FEW,,0.00,0.0,WeatherDisplay:10.37,2013-08-07 19:57:00,
2013-08-07 21:59:00,83.5,73.5,29.94,North,5,0.0,0.0,72,0.00,FEW,,0.00,0.0,WeatherDisplay:10.37,2013-08-07 19:59:00,
2013-08-07 22:01:00,83.5,73.5,29.94,North,5,0.0,0.0,72,0.00,FEW,,0.00,0.0,WeatherDisplay:10.37,2013-08-07 20:01:00,
2013-08-07 22:02:00,83.4,73.4,29.94,North,5,0.0,0.0,72,0.00,FEW,,0.00,0.0,WeatherDisplay:10.37,2013-08-07 20:02:00,
2013-08-07 22:03:00,83.4,73.4,29.94,North,5,0.0,0.0,72,0.00,FEW,,0.00,0.0,WeatherDisplay:10.37,2013-08-07 20:03:00,
2013-08-07 22:04:00,83.3,73.3,29.94,North,5,0.0,0.0,72,0.00,FEW,,0.00,0.0,WeatherDisplay:10.37,2013-08-07 20:04:00,
2013-08-07 22:06:00,83.3,73.3,29.94,North,5,0.0,0.0,72,0.00,FEW,,0.00,0.0,WeatherDisplay:10.37,2013-08-07 20:06:00,
2013-08-07 22:07:00,83.3,73.3,29.94,North,5,0.0,0.0,72,0.00,FEW,,0.00,0.0,WeatherDisplay:10.37,2013-08-07 20:07:00,
2013-08-07 22:10:00,83.2,73.2,29.94,North,5,0.0,0.0,72,0.00,FEW,,0.00,0.0,WeatherDisplay:10.37,2013-08-07 20:10:00,
2013-08-07 22:11:00,83.1,73.1,29.94,North,5,0.0,0.0,72,0.00,FEW,,0.00,0.0,WeatherDisplay:10.37,2013-08-07 20:11:00,
2013-08-07 22:12:00,83.1,73.1,29.94,North,5,0.0,0.0,72,0.00,FEW,,0.00,0.0,WeatherDisplay:10.37,2013-08-07 20:12:00,
2013-08-07 22:13:00,83.1,73.1,29.94,North,5,0.0,0.0,72,0.00,FEW,,0.00,0.0,WeatherDisplay:10.37,2013-08-07 20:13:00,
2013-08-07 22:15:00,83.1,73.1,29.94,North,5,0.0,0.0,72,0.00,FEW,,0.00,0.0,WeatherDisplay:10.37,2013-08-07 20:15:00,
2013-08-07 22:17:00,83.0,73.4,29.94,North,5,0.0,0.0,73,0.00,FEW,,0.00,0.0,WeatherDisplay:10.37,2013-08-07 20:17:00,
2013-08-07 22:18:00,83.0,73.4,29.94,North,5,0.0,0.0,73,0.00,FEW,,0.00,0.0,WeatherDisplay:10.37,2013-08-07 20:18:00,
2013-08-07 22:20:00,82.9,73.4,29.94,North,5,0.0,0.0,73,0.00,FEW,,0.00,0.0,WeatherDisplay:10.37,2013-08-07 20:20:00,
2013-08-07 22:22:00,82.9,73.4,29.94,North,5,0.0,0.0,73,0.00,FEW,,0.00,0.0,WeatherDisplay:10.37,2013-08-07 20:22:00,
2013-08-07 22:23:00,82.9,73.4,29.94,North,5,0.0,0.0,73,0.00,FEW,,0.00,0.0,WeatherDisplay:10.37,2013-08-07 20:23:00,
2013-08-07 22:25:00,82.9,73.4,29.94,North,5,0.0,0.0,73,0.00,FEW,,0.00,0.0,WeatherDisplay:10.37,2013-08-07 20:25:00,
2013-08-07 22:27:00,82.8,73.3,29.94,North,5,0.0,0.0,73,0.00,FEW,,0.00,0.0,WeatherDisplay:10.37,2013-08-07 20:27:00,
2013-08-07 22:28:00,82.8,73.3,29.94,North,5,0.0,0.0,73,0.00,FEW,,0.00,0.0,WeatherDisplay:10.37,2013-08-07 20:28:00,
2013-08-07 22:30:00,82.8,73.3,29.94,North,5,0.0,0.0,73,0.00,FEW,,0.00,0.0,WeatherDisplay:10.37,2013-08-07 20:30:00,
2013-08-07 22:32:00,82.7,73.2,29.94,North,5,0.0,0.0,73,0.00,FEW,,0.00,0.0,WeatherDisplay:10.37,2013-08-07 20:32:00,
2013-08-07 22:33:00,82.7,73.2,29.94,North,5,0.0,0.0,73,0.00,FEW,,0.00,0.0,WeatherDisplay:10.37,2013-08-07 20:33:00,
2013-08-07 22:34:00,82.7,73.2,29.94,North,5,0.0,0.0,73,0.00,FEW,,0.00,0.0,WeatherDisplay:10.37,2013-08-07 20:34:00,
2013-08-07 22:36:00,82.6,73.1,29.94,North,5,0.0,0.0,73,0.00,FEW,,0.00,0.0,WeatherDisplay:10.37,2013-08-07 20:36:00,
2013-08-07 22:37:00,82.6,73.1,29.94,North,5,0.0,0.0,73,0.00,FEW,,0.00,0.0,WeatherDisplay:10.37,2013-08-07 20:37:00,
2013-08-07 22:39:00,82.6,73.1,29.94,North,5,0.0,0.0,73,0.00,FEW,,0.00,0.0,WeatherDisplay:10.37,2013-08-07 20:39:00,
2013-08-07 22:41:00,82.5,73.0,29.94,North,5,0.0,0.0,73,0.00,FEW,,0.00,0.0,WeatherDisplay:10.37,2013-08-07 20:41:00,
2013-08-07 22:42:00,82.6,73.1,29.94,North,5,0.0,0.0,73,0.00,FEW,,0.00,0.0,WeatherDisplay:10.37,2013-08-07 20:42:00,
2013-08-07 22:43:00,82.5,73.0,29.94,North,5,0.0,0.0,73,0.00,FEW,,0.00,0.0,WeatherDisplay:10.37,2013-08-07 20:43:00,
2013-08-07 22:44:00,82.5,73.4,29.94,North,5,0.0,0.0,74,0.00,FEW,,0.00,0.0,WeatherDisplay:10.37,2013-08-07 20:44:00,
2013-08-07 22:45:00,82.5,73.4,29.94,North,5,0.0,0.0,74,0.00,FEW,,0.00,0.0,WeatherDisplay:10.37,2013-08-07 20:45:00,
2013-08-07 22:46:00,82.5,73.0,29.94,North,5,0.0,0.0,73,0.00,FEW,,0.00,0.0,WeatherDisplay:10.37,2013-08-07 20:46:00,
2013-08-07 22:47:00,82.5,73.0,29.94,North,5,0.0,0.0,73,0.00,FEW,,0.00,0.0,WeatherDisplay:10.37,2013-08-07 20:47:00,
2013-08-07 22:48:00,82.4,72.9,29.94,North,5,0.0,0.0,73,0.00,FEW,,0.00,0.0,WeatherDisplay:10.37,2013-08-07 20:48:00,
2013-08-07 22:49:00,82.4,72.9,29.94,North,5,0.0,0.0,73,0.00,FEW,,0.00,0.0,WeatherDisplay:10.37,2013-08-07 20:49:00,
2013-08-07 22:50:00,82.4,72.9,29.94,North,5,0.0,0.0,73,0.00,FEW,,0.00,0.0,WeatherDisplay:10.37,2013-08-07 20:50:00,
2013-08-07 22:51:00,82.3,72.8,29.94,North,5,0.0,0.0,73,0.00,FEW,,0.00,0.0,WeatherDisplay:10.37,2013-08-07 20:51:00,
2013-08-07 22:52:00,82.3,73.2,29.94,North,5,0.0,0.0,74,0.00,FEW,,0.00,0.0,WeatherDisplay:10.37,2013-08-07 20:52:00,
2013-08-07 22:53:00,82.3,73.2,29.94,North,5,0.0,0.0,74,0.00,FEW,,0.00,0.0,WeatherDisplay:10.37,2013-08-07 20:53:00,
2013-08-07 22:55:00,82.3,73.2,29.95,North,5,0.0,0.0,74,0.00,FEW,,0.00,0.0,WeatherDisplay:10.37,2013-08-07 20:55:00,
2013-08-07 22:57:00,82.2,73.1,29.95,North,5,0.0,0.0,74,0.00,FEW,,0.00,0.0,WeatherDisplay:10.37,2013-08-07 20:57:00,
2013-08-07 22:58:00,82.2,73.1,29.95,North,5,0.0,0.0,74,0.00,FEW,,0.00,0.0,WeatherDisplay:10.37,2013-08-07 20:58:00,
2013-08-07 23:00:00,82.1,73.0,29.95,North,360,0.0,0.0,74,0.00,FEW,,0.00,0.0,WeatherDisplay:10.37,2013-08-07 21:00:00,
2013-08-07 23:01:00,82.1,73.0,29.95,North,360,0.0,0.0,74,0.00,FEW,,0.00,0.0,WeatherDisplay:10.37,2013-08-07 21:01:00,
2013-08-07 23:02:00,82.1,73.0,29.95,North,360,0.0,0.0,74,0.00,FEW,,0.00,0.0,WeatherDisplay:10.37,2013-08-07 21:02:00,
2013-08-07 23:03:00,82.1,73.0,29.95,North,360,0.0,0.0,74,0.00,FEW,,0.00,0.0,WeatherDisplay:10.37,2013-08-07 21:03:00,
2013-08-07 23:06:00,82.0,72.9,29.95,North,360,0.0,0.0,74,0.00,FEW,,0.00,0.0,WeatherDisplay:10.37,2013-08-07 21:06:00,
2013-08-07 23:07:00,82.0,72.9,29.95,North,360,0.0,0.0,74,0.00,FEW,,0.00,0.0,WeatherDisplay:10.37,2013-08-07 21:07:00,
2013-08-07 23:08:00,81.9,72.8,29.95,North,360,0.0,0.0,74,0.00,FEW,,0.00,0.0,WeatherDisplay:10.37,2013-08-07 21:08:00,
2013-08-07 23:11:00,81.9,73.2,29.95,North,360,0.0,0.0,75,0.00,FEW,,0.00,0.0,WeatherDisplay:10.37,2013-08-07 21:11:00,
2013-08-07 23:12:00,81.9,73.2,29.95,North,360,0.0,0.0,75,0.00,FEW,,0.00,0.0,WeatherDisplay:10.37,2013-08-07 21:12:00,
2013-08-07 23:13:00,81.9,73.2,29.95,North,360,0.0,0.0,75,0.00,FEW,,0.00,0.0,WeatherDisplay:10.37,2013-08-07 21:13:00,
2013-08-07 23:14:00,81.8,73.1,29.95,North,360,0.0,0.0,75,0.00,FEW,,0.00,0.0,WeatherDisplay:10.37,2013-08-07 21:14:00,
2013-08-07 23:16:00,81.8,73.1,29.95,North,360,0.0,0.0,75,0.00,FEW,,0.00,0.0,WeatherDisplay:10.37,2013-08-07 21:16:00,
2013-08-07 23:17:00,81.8,73.1,29.95,North,360,0.0,0.0,75,0.00,FEW,,0.00,0.0,WeatherDisplay:10.37,2013-08-07 21:17:00,
2013-08-07 23:18:00,81.8,73.1,29.95,North,360,0.0,0.0,75,0.00,FEW,,0.00,0.0,WeatherDisplay:10.37,2013-08-07 21:18:00,
2013-08-07 23:19:00,81.8,73.1,29.95,North,360,0.0,0.0,75,0.00,FEW,,0.00,0.0,WeatherDisplay:10.37,2013-08-07 21:19:00,
2013-08-07 23:21:00,81.7,73.0,29.95,North,360,0.0,0.0,75,0.00,FEW,,0.00,0.0,WeatherDisplay:10.37,2013-08-07 21:21:00,
2013-08-07 23:22:00,81.6,72.9,29.95,North,360,0.0,0.0,75,0.00,FEW,,0.00,0.0,WeatherDisplay:10.37,2013-08-07 21:22:00,
2013-08-07 23:23:00,81.5,72.8,29.95,North,360,0.0,0.0,75,0.00,FEW,,0.00,0.0,WeatherDisplay:10.37,2013-08-07 21:23:00,
2013-08-07 23:24:00,81.5,72.8,29.95,North,360,0.0,0.0,75,0.00,FEW,,0.00,0.0,WeatherDisplay:10.37,2013-08-07 21:24:00,
2013-08-07 23:26:00,81.5,72.8,29.95,North,360,0.0,0.0,75,0.00,FEW,,0.00,0.0,WeatherDisplay:10.37,2013-08-07 21:26:00,
2013-08-07 23:28:00,81.4,72.7,29.95,North,360,0.0,0.0,75,0.00,FEW,,0.00,0.0,WeatherDisplay:10.37,2013-08-07 21:28:00,
2013-08-07 23:29:00,81.4,72.7,29.95,North,360,0.0,0.0,75,0.00,FEW,,0.00,0.0,WeatherDisplay:10.37,2013-08-07 21:29:00,
2013-08-07 23:30:00,81.4,72.7,29.95,North,360,0.0,0.0,75,0.00,FEW,,0.00,0.0,WeatherDisplay:10.37,2013-08-07 21:30:00,
2013-08-07 23:31:00,81.3,72.6,29.95,NNW,331,0.0,0.0,75,0.00,FEW,,0.00,0.0,WeatherDisplay:10.37,2013-08-07 21:31:00,
2013-08-07 23:33:00,81.3,72.6,29.95,NNW,331,1.2,0.0,75,0.00,FEW,,0.00,0.0,WeatherDisplay:10.37,2013-08-07 21:33:00,
2013-08-07 23:34:00,81.3,73.0,29.95,NNW,331,0.0,0.0,76,0.00,FEW,,0.00,0.0,WeatherDisplay:10.37,2013-08-07 21:34:00,
2013-08-07 23:35:00,81.3,73.0,29.95,NNW,331,0.0,0.0,76,0.00,FEW,,0.00,0.0,WeatherDisplay:10.37,2013-08-07 21:35:00,
2013-08-07 23:37:00,81.3,73.0,29.95,NNW,331,0.0,0.0,76,0.00,FEW,,0.00,0.0,WeatherDisplay:10.37,2013-08-07 21:37:00,
2013-08-07 23:38:00,81.3,73.0,29.95,NNW,342,0.0,0.0,76,0.00,FEW,,0.00,0.0,WeatherDisplay:10.37,2013-08-07 21:38:00,
2013-08-07 23:40:00,81.2,72.9,29.95,North,355,0.0,0.0,76,0.00,FEW,,0.00,0.0,WeatherDisplay:10.37,2013-08-07 21:40:00,
2013-08-07 23:41:00,81.2,72.9,29.95,North,355,0.0,0.0,76,0.00,FEW,,0.00,0.0,WeatherDisplay:10.37,2013-08-07 21:41:00,
2013-08-07 23:42:00,81.1,72.8,29.95,North,355,0.0,0.0,76,0.00,FEW,,0.00,0.0,WeatherDisplay:10.37,2013-08-07 21:42:00,
2013-08-07 23:43:00,81.1,72.8,29.95,North,355,0.0,0.0,76,0.00,FEW,,0.00,0.0,WeatherDisplay:10.37,2013-08-07 21:43:00,
2013-08-07 23:44:00,81.1,72.8,29.95,North,355,0.0,0.0,76,0.00,FEW,,0.00,0.0,WeatherDisplay:10.37,2013-08-07 21:44:00,
2013-08-07 23:46:00,81.0,72.7,29.95,North,351,1.2,0.0,76,0.00,FEW,,0.00,0.0,WeatherDisplay:10.37,2013-08-07 21:46:00,
2013-08-07 23:47:00,81.0,72.7,29.95,NNW,333,1.2,0.0,76,0.00,FEW,,0.00,0.0,WeatherDisplay:10.37,2013-08-07 21:47:00,
2013-08-07 23:48:00,81.0,72.7,29.95,NNW,333,3.5,3.5,76,0.00,FEW,,0.00,0.0,WeatherDisplay:10.37,2013-08-07 21:48:00,
2013-08-07 23:49:00,81.0,72.7,29.95,NNW,333,3.5,3.5,76,0.00,FEW,,0.00,0.0,WeatherDisplay:10.37,2013-08-07 21:49:00,
2013-08-07 23:51:00,80.9,72.6,29.95,NNW,333,3.5,3.5,76,0.00,FEW,,0.00,0.0,WeatherDisplay:10.37,2013-08-07 21:51:00,
2013-08-07 23:52:00,80.9,73.0,29.95,NNW,333,3.5,3.5,77,0.00,FEW,,0.00,0.0,WeatherDisplay:10.37,2013-08-07 21:52:00,
2013-08-07 23:53:00,80.9,73.0,29.95,NNW,334,3.5,3.5,77,0.00,FEW,,0.00,0.0,WeatherDisplay:10.37,2013-08-07 21:53:00,
2013-08-07 23:54:00,80.8,72.9,29.95,NNW,334,3.5,3.5,77,0.00,FEW,,0.00,0.0,WeatherDisplay:10.37,2013-08-07 21:54:00,
2013-08-07 23:56:00,80.8,72.9,29.95,NNW,336,0.0,0.0,77,0.00,FEW,,0.00,0.0,WeatherDisplay:10.37,2013-08-07 21:56:00,
2013-08-07 23:57:00,80.8,72.9,29.95,NNW,336,0.0,0.0,77,0.00,FEW,,0.00,0.0,WeatherDisplay:10.37,2013-08-07 21:57:00,
2013-08-07 23:58:00,80.7,72.8,29.95,NNW,336,0.0,0.0,77,0.00,FEW,,0.00,0.0,WeatherDisplay:10.37,2013-08-07 21:58:00,